Wetterdaten: Freitag, 05.05.2023
Datum Zeit Temp. Aussen Temp. o. S. Temp +5cm Feuchte Auss Luftdruck Regen Sonnenschein Regendauer Solar Windben Empfang
05.05.2023 00:00 17,8 C 16,7 C 13,3 C 60 % 1014,7 hPa 0,0 l/m 0 min 0 min 0 W/m 12,9 km/h (3 Bft) 99,12 %
05.05.2023 00:05 17,8 C 16,7 C 13,3 C 60 % 1014,7 hPa 0,0 l/m 0 min 0 min 0 W/m 12,9 km/h (3 Bft) 53,51 %
05.05.2023 00:10 17,8 C 16,7 C 13,3 C 60 % 1014,7 hPa 0,0 l/m 0 min 0 min 0 W/m 6,4 km/h (2 Bft) 100,00 %
05.05.2023 00:15 17,8 C 16,7 C 13,3 C 60 % 1014,6 hPa 0,0 l/m 0 min 0 min 0 W/m 16,1 km/h (3 Bft) 100,00 %
05.05.2023 00:20 17,8 C 16,7 C 13,3 C 60 % 1014,5 hPa 0,0 l/m 0 min 0 min 0 W/m 16,1 km/h (3 Bft) 100,00 %
05.05.2023 00:25 17,8 C 17,2 C 13,3 C 60 % 1014,6 hPa 0,0 l/m 0 min 0 min 0 W/m 22,5 km/h (4 Bft) 100,00 %
05.05.2023 00:30 17,8 C 16,7 C 13,3 C 60 % 1014,6 hPa 0,0 l/m 0 min 0 min 0 W/m 16,1 km/h (3 Bft) 100,00 %
05.05.2023 00:35 17,8 C 16,7 C 13,3 C 60 % 1014,7 hPa 0,0 l/m 0 min 0 min 0 W/m 12,9 km/h (3 Bft) 100,00 %
05.05.2023 00:40 17,8 C 17,2 C 13,3 C 60 % 1014,7 hPa 0,0 l/m 0 min 0 min 0 W/m 9,7 km/h (2 Bft) 100,00 %
05.05.2023 00:45 17,8 C 17,2 C 13,3 C 60 % 1015,0 hPa 0,0 l/m 0 min 0 min 0 W/m 12,9 km/h (3 Bft) 100,00 %
05.05.2023 01:02 17,8 C 16,7 C 13,3 C 61 % 1014,7 hPa 0,0 l/m 0 min 0 min 0 W/m 6,4 km/h (2 Bft) 100,00 %
05.05.2023 01:04 17,7 C 16,7 C 13,3 C 61 % 1014,6 hPa 0,0 l/m 0 min 0 min 0 W/m 12,9 km/h (3 Bft) 98,31 %
05.05.2023 01:06 17,7 C 16,7 C 13,3 C 61 % 1014,7 hPa 0,0 l/m 0 min 0 min 0 W/m 6,4 km/h (2 Bft) 97,50 %
05.05.2023 01:08 17,7 C 16,7 C 12,8 C 61 % 1014,7 hPa 0,0 l/m 0 min 0 min 0 W/m 6,4 km/h (2 Bft) 97,87 %
05.05.2023 01:10 17,7 C 16,7 C 12,8 C 61 % 1014,7 hPa 0,0 l/m 0 min 0 min 0 W/m 6,4 km/h (2 Bft) 100,00 %
05.05.2023 01:12 17,7 C 16,7 C 12,8 C 61 % 1014,8 hPa 0,0 l/m 0 min 0 min 0 W/m 9,7 km/h (2 Bft) 97,83 %
05.05.2023 01:14 17,7 C 16,7 C 12,8 C 61 % 1014,8 hPa 0,0 l/m 0 min 0 min 0 W/m 6,4 km/h (2 Bft) 100,00 %
05.05.2023 01:16 17,6 C 16,7 C 12,8 C 61 % 1014,8 hPa 0,0 l/m 0 min 0 min 0 W/m 6,4 km/h (2 Bft) 95,74 %
05.05.2023 01:18 17,6 C 16,7 C 12,8 C 61 % 1014,8 hPa 0,0 l/m 0 min 0 min 0 W/m 12,9 km/h (3 Bft) 97,87 %
05.05.2023 01:20 17,6 C 16,7 C 12,8 C 61 % 1014,9 hPa 0,0 l/m 0 min 0 min 0 W/m 6,4 km/h (2 Bft) 97,87 %
05.05.2023 01:22 17,6 C 16,7 C 12,8 C 61 % 1015,0 hPa 0,0 l/m 0 min 0 min 0 W/m 6,4 km/h (2 Bft) 97,87 %
05.05.2023 01:24 17,5 C 16,7 C 12,8 C 61 % 1014,9 hPa 0,0 l/m 0 min 0 min 0 W/m 6,4 km/h (2 Bft) 97,87 %
05.05.2023 01:26 17,5 C 16,1 C 12,8 C 62 % 1014,9 hPa 0,0 l/m 0 min 0 min 0 W/m 12,9 km/h (3 Bft) 97,87 %
05.05.2023 01:28 17,4 C 16,1 C 12,8 C 62 % 1014,9 hPa 0,0 l/m 0 min 0 min 0 W/m 6,4 km/h (2 Bft) 97,87 %
05.05.2023 01:30 17,4 C 16,1 C 12,8 C 62 % 1014,9 hPa 0,0 l/m 0 min 0 min 0 W/m 12,9 km/h (3 Bft) 97,83 %
05.05.2023 01:32 17,4 C 16,1 C 12,8 C 62 % 1014,9 hPa 0,0 l/m 0 min 0 min 0 W/m 12,9 km/h (3 Bft) 97,87 %
05.05.2023 01:34 17,3 C 16,1 C 12,8 C 62 % 1015,0 hPa 0,0 l/m 0 min 0 min 0 W/m 12,9 km/h (3 Bft) 97,87 %
05.05.2023 01:36 17,3 C 16,1 C 12,8 C 62 % 1015,0 hPa 0,0 l/m 0 min 0 min 0 W/m 6,4 km/h (2 Bft) 97,87 %
05.05.2023 01:38 17,3 C 16,1 C 12,8 C 63 % 1015,0 hPa 0,0 l/m 0 min 0 min 0 W/m 6,4 km/h (2 Bft) 95,74 %
05.05.2023 01:40 17,3 C 16,1 C 12,8 C 63 % 1014,9 hPa 0,0 l/m 0 min 0 min 0 W/m 6,4 km/h (2 Bft) 95,74 %
05.05.2023 01:42 17,2 C 16,1 C 12,8 C 63 % 1014,9 hPa 0,0 l/m 0 min 0 min 0 W/m 3,2 km/h (1 Bft) 97,87 %
05.05.2023 01:44 17,2 C 16,1 C 12,8 C 63 % 1014,9 hPa 0,0 l/m 0 min 0 min 0 W/m 6,4 km/h (2 Bft) 97,87 %
05.05.2023 01:46 17,2 C 16,1 C 12,2 C 63 % 1014,9 hPa 0,0 l/m 0 min 0 min 0 W/m 6,4 km/h (2 Bft) 95,65 %
05.05.2023 01:48 17,2 C 16,1 C 12,2 C 63 % 1014,9 hPa 0,0 l/m 0 min 0 min 0 W/m 6,4 km/h (2 Bft) 95,74 %
05.05.2023 01:50 17,1 C 16,1 C 12,2 C 63 % 1014,9 hPa 0,0 l/m 0 min 0 min 0 W/m 3,2 km/h (1 Bft) 95,74 %
05.05.2023 01:52 17,1 C 16,1 C 12,2 C 63 % 1014,9 hPa 0,0 l/m 0 min 0 min 0 W/m 3,2 km/h (1 Bft) 97,87 %
05.05.2023 01:54 17,1 C 16,1 C 12,2 C 63 % 1014,9 hPa 0,0 l/m 0 min 0 min 0 W/m 3,2 km/h (1 Bft) 95,74 %
05.05.2023 01:56 17,1 C 16,1 C 12,2 C 64 % 1014,9 hPa 0,0 l/m 0 min 0 min 0 W/m 6,4 km/h (2 Bft) 95,74 %
05.05.2023 01:58 17,1 C 16,1 C 12,2 C 64 % 1015,0 hPa 0,0 l/m 0 min 0 min 0 W/m 6,4 km/h (2 Bft) 96,00 %
05.05.2023 02:00 17,0 C 15,6 C 12,2 C 64 % 1015,0 hPa 0,0 l/m 0 min 0 min 0 W/m 6,4 km/h (2 Bft) 95,74 %
05.05.2023 02:02 17,0 C 15,6 C 12,2 C 64 % 1014,9 hPa 0,0 l/m 0 min 0 min 0 W/m 6,4 km/h (2 Bft) 95,74 %
05.05.2023 02:04 16,9 C 15,6 C 12,2 C 64 % 1014,9 hPa 0,0 l/m 0 min 0 min 0 W/m 3,2 km/h (1 Bft) 97,87 %
05.05.2023 02:06 16,9 C 15,6 C 12,2 C 64 % 1014,9 hPa 0,0 l/m 0 min 0 min 0 W/m 6,4 km/h (2 Bft) 100,00 %
05.05.2023 02:08 16,9 C 15,6 C 12,2 C 64 % 1014,9 hPa 0,0 l/m 0 min 0 min 0 W/m 3,2 km/h (1 Bft) 97,87 %
05.05.2023 02:10 16,9 C 15,6 C 12,2 C 64 % 1014,9 hPa 0,0 l/m 0 min 0 min 0 W/m 3,2 km/h (1 Bft) 93,62 %
05.05.2023 02:12 16,9 C 15,6 C 12,2 C 65 % 1014,9 hPa 0,0 l/m 0 min 0 min 0 W/m 3,2 km/h (1 Bft) 95,74 %
05.05.2023 02:14 16,9 C 15,6 C 12,2 C 65 % 1014,9 hPa 0,0 l/m 0 min 0 min 0 W/m 0,0 km/h (0 Bft) 95,74 %
05.05.2023 02:16 16,9 C 15,6 C 12,2 C 65 % 1014,9 hPa 0,0 l/m 0 min 0 min 0 W/m 3,2 km/h (1 Bft) 95,74 %
05.05.2023 02:18 16,8 C 15,6 C 11,7 C 65 % 1014,8 hPa 0,0 l/m 0 min 0 min 0 W/m 3,2 km/h (1 Bft) 95,74 %
05.05.2023 02:20 16,8 C 15,6 C 11,7 C 65 % 1014,8 hPa 0,0 l/m 0 min 0 min 0 W/m 0,0 km/h (0 Bft) 95,74 %
05.05.2023 02:22 16,8 C 15,6 C 11,7 C 65 % 1014,8 hPa 0,0 l/m 0 min 0 min 0 W/m 3,2 km/h (1 Bft) 93,62 %
05.05.2023 02:24 16,8 C 15,6 C 11,7 C 66 % 1014,8 hPa 0,0 l/m 0 min 0 min 0 W/m 0,0 km/h (0 Bft) 95,65 %
05.05.2023 02:26 16,8 C 15,6 C 11,1 C 66 % 1014,8 hPa 0,0 l/m 0 min 0 min 0 W/m 0,0 km/h (0 Bft) 97,87 %
05.05.2023 02:28 16,8 C 15,6 C 11,1 C 66 % 1014,9 hPa 0,0 l/m 0 min 0 min 0 W/m 3,2 km/h (1 Bft) 95,74 %
05.05.2023 02:30 16,7 C 15,0 C 11,1 C 67 % 1014,9 hPa 0,0 l/m 0 min 0 min 0 W/m 0,0 km/h (0 Bft) 95,74 %
05.05.2023 02:32 16,7 C 15,0 C 11,1 C 67 % 1014,9 hPa 0,0 l/m 0 min 0 min 0 W/m 0,0 km/h (0 Bft) 97,87 %
05.05.2023 02:34 16,7 C 15,0 C 11,1 C 67 % 1014,9 hPa 0,0 l/m 0 min 0 min 0 W/m 0,0 km/h (0 Bft) 97,87 %
05.05.2023 02:36 16,7 C 15,0 C 11,1 C 67 % 1014,9 hPa 0,0 l/m 0 min 0 min 0 W/m 0,0 km/h (0 Bft) 97,87 %
05.05.2023 02:38 16,7 C 15,0 C 11,1 C 67 % 1014,9 hPa 0,0 l/m 0 min 0 min 0 W/m 3,2 km/h (1 Bft) 97,87 %
05.05.2023 02:40 16,6 C 15,0 C 10,6 C 67 % 1014,9 hPa 0,0 l/m 0 min 0 min 0 W/m 0,0 km/h (0 Bft) 95,74 %
05.05.2023 02:42 16,6 C 15,0 C 10,6 C 67 % 1014,8 hPa 0,0 l/m 0 min 0 min 0 W/m 0,0 km/h (0 Bft) 97,83 %
05.05.2023 02:44 16,6 C 15,0 C 10,6 C 67 % 1014,8 hPa 0,0 l/m 0 min 0 min 0 W/m 0,0 km/h (0 Bft) 97,87 %
05.05.2023 02:46 16,5 C 14,4 C 10,6 C 67 % 1014,8 hPa 0,0 l/m 0 min 0 min 0 W/m 0,0 km/h (0 Bft) 97,87 %
05.05.2023 02:48 16,5 C 15,0 C 10,6 C 67 % 1014,8 hPa 0,0 l/m 0 min 0 min 0 W/m 3,2 km/h (1 Bft) 97,87 %
05.05.2023 02:50 16,4 C 15,0 C 11,1 C 67 % 1014,8 hPa 0,0 l/m 0 min 0 min 0 W/m 3,2 km/h (1 Bft) 95,74 %
05.05.2023 02:52 16,4 C 15,0 C 11,1 C 67 % 1014,7 hPa 0,0 l/m 0 min 0 min 0 W/m 3,2 km/h (1 Bft) 95,74 %
05.05.2023 02:54 16,3 C 15,0 C 10,6 C 68 % 1014,8 hPa 0,0 l/m 0 min 0 min 0 W/m 0,0 km/h (0 Bft) 97,87 %
05.05.2023 02:56 16,3 C 15,0 C 10,6 C 68 % 1014,8 hPa 0,0 l/m 0 min 0 min 0 W/m 3,2 km/h (1 Bft) 97,14 %
05.05.2023 02:58 16,3 C 15,0 C 10,6 C 68 % 1014,9 hPa 0,0 l/m 0 min 0 min 0 W/m 3,2 km/h (1 Bft) 97,87 %
05.05.2023 03:00 16,2 C 14,4 C 10,6 C 68 % 1014,9 hPa 0,0 l/m 0 min 0 min 0 W/m 0,0 km/h (0 Bft) 97,87 %
05.05.2023 03:02 16,2 C 14,4 C 10,6 C 68 % 1014,9 hPa 0,0 l/m 0 min 0 min 0 W/m 0,0 km/h (0 Bft) 95,65 %
05.05.2023 03:04 16,2 C 14,4 C 10,6 C 69 % 1015,0 hPa 0,0 l/m 0 min 0 min 0 W/m 0,0 km/h (0 Bft) 97,92 %
05.05.2023 03:06 16,1 C 14,4 C 10,6 C 69 % 1014,9 hPa 0,0 l/m 0 min 0 min 0 W/m 0,0 km/h (0 Bft) 100,00 %
05.05.2023 03:08 16,1 C 14,4 C 10,6 C 69 % 1014,9 hPa 0,0 l/m 0 min 0 min 0 W/m 0,0 km/h (0 Bft) 100,00 %
05.05.2023 03:10 16,1 C 13,9 C 10,0 C 69 % 1014,9 hPa 0,0 l/m 0 min 0 min 0 W/m 0,0 km/h (0 Bft) 100,00 %
05.05.2023 03:12 16,1 C 13,9 C 10,0 C 69 % 1014,9 hPa 0,0 l/m 0 min 0 min 0 W/m 0,0 km/h (0 Bft) 100,00 %
05.05.2023 03:14 16,0 C 13,9 C 10,0 C 70 % 1014,9 hPa 0,0 l/m 0 min 0 min 0 W/m 0,0 km/h (0 Bft) 100,00 %
05.05.2023 03:16 15,9 C 13,9 C 10,0 C 70 % 1014,9 hPa 0,0 l/m 0 min 0 min 0 W/m 0,0 km/h (0 Bft) 100,00 %
05.05.2023 03:18 15,9 C 13,9 C 10,0 C 71 % 1014,9 hPa 0,0 l/m 0 min 0 min 0 W/m 0,0 km/h (0 Bft) 100,00 %
05.05.2023 03:20 15,8 C 13,9 C 10,0 C 71 % 1014,9 hPa 0,0 l/m 0 min 0 min 0 W/m 0,0 km/h (0 Bft) 100,00 %
05.05.2023 03:22 15,8 C 13,9 C 10,0 C 71 % 1014,8 hPa 0,0 l/m 0 min 0 min 0 W/m 0,0 km/h (0 Bft) 100,00 %
05.05.2023 03:24 15,8 C 13,3 C 9,4 C 71 % 1014,8 hPa 0,0 l/m 0 min 0 min 0 W/m 0,0 km/h (0 Bft) 100,00 %
05.05.2023 03:26 15,7 C 13,3 C 9,4 C 71 % 1014,8 hPa 0,0 l/m 0 min 0 min 0 W/m 0,0 km/h (0 Bft) 100,00 %
05.05.2023 03:28 15,7 C 13,3 C 9,4 C 72 % 1014,9 hPa 0,0 l/m 0 min 0 min 0 W/m 0,0 km/h (0 Bft) 100,00 %
05.05.2023 03:30 15,6 C 13,3 C 9,4 C 72 % 1014,9 hPa 0,0 l/m 0 min 0 min 0 W/m 0,0 km/h (0 Bft) 97,87 %
05.05.2023 03:32 15,6 C 13,3 C 9,4 C 73 % 1014,8 hPa 0,0 l/m 0 min 0 min 0 W/m 0,0 km/h (0 Bft) 97,83 %
05.05.2023 03:34 15,5 C 13,3 C 9,4 C 73 % 1014,8 hPa 0,0 l/m 0 min 0 min 0 W/m 0,0 km/h (0 Bft) 100,00 %
05.05.2023 03:36 15,4 C 12,8 C 9,4 C 73 % 1014,9 hPa 0,0 l/m 0 min 0 min 0 W/m 0,0 km/h (0 Bft) 100,00 %
05.05.2023 03:38 15,4 C 12,8 C 9,4 C 74 % 1014,9 hPa 0,0 l/m 0 min 0 min 0 W/m 0,0 km/h (0 Bft) 100,00 %
05.05.2023 03:40 15,3 C 12,8 C 9,4 C 74 % 1014,9 hPa 0,0 l/m 0 min 0 min 0 W/m 0,0 km/h (0 Bft) 95,74 %
05.05.2023 03:42 15,2 C 13,3 C 9,4 C 75 % 1014,9 hPa 0,0 l/m 0 min 0 min 0 W/m 0,0 km/h (0 Bft) 93,88 %
05.05.2023 03:44 15,2 C 13,3 C 9,4 C 75 % 1014,9 hPa 0,0 l/m 0 min 0 min 0 W/m 0,0 km/h (0 Bft) 95,74 %
05.05.2023 03:46 15,2 C 13,3 C 9,4 C 76 % 1015,0 hPa 0,0 l/m 0 min 0 min 0 W/m 0,0 km/h (0 Bft) 95,74 %
05.05.2023 03:48 15,1 C 13,3 C 9,4 C 76 % 1015,0 hPa 0,0 l/m 0 min 0 min 0 W/m 0,0 km/h (0 Bft) 95,74 %
05.05.2023 03:50 15,1 C 13,3 C 9,4 C 76 % 1015,0 hPa 0,0 l/m 0 min 0 min 0 W/m 3,2 km/h (1 Bft) 95,65 %
05.05.2023 03:52 15,0 C 13,3 C 9,4 C 77 % 1015,0 hPa 0,0 l/m 0 min 0 min 0 W/m 3,2 km/h (1 Bft) 95,74 %
05.05.2023 03:54 15,0 C 13,3 C 9,4 C 78 % 1015,1 hPa 0,0 l/m 0 min 0 min 0 W/m 3,2 km/h (1 Bft) 95,74 %
05.05.2023 03:56 14,9 C 13,9 C 9,4 C 78 % 1015,0 hPa 0,0 l/m 0 min 0 min 0 W/m 3,2 km/h (1 Bft) 91,49 %
05.05.2023 03:58 14,9 C 13,9 C 9,4 C 79 % 1015,1 hPa 0,0 l/m 0 min 0 min 0 W/m 6,4 km/h (2 Bft) 95,83 %
05.05.2023 04:00 14,9 C 13,9 C 9,4 C 79 % 1015,1 hPa 0,0 l/m 0 min 0 min 0 W/m 3,2 km/h (1 Bft) 95,74 %
05.05.2023 04:02 14,9 C 13,9 C 10,0 C 80 % 1015,1 hPa 0,0 l/m 0 min 0 min 0 W/m 3,2 km/h (1 Bft) 95,74 %
05.05.2023 04:04 14,9 C 14,4 C 10,0 C 80 % 1015,1 hPa 0,0 l/m 0 min 0 min 0 W/m 3,2 km/h (1 Bft) 93,75 %
05.05.2023 04:06 15,0 C 14,4 C 10,0 C 80 % 1015,1 hPa 0,0 l/m 0 min 0 min 0 W/m 3,2 km/h (1 Bft) 95,65 %
05.05.2023 04:08 15,1 C 14,4 C 10,6 C 81 % 1015,1 hPa 0,0 l/m 0 min 0 min 0 W/m 3,2 km/h (1 Bft) 93,62 %
05.05.2023 04:10 15,1 C 14,4 C 10,6 C 81 % 1015,2 hPa 0,0 l/m 0 min 0 min 0 W/m 3,2 km/h (1 Bft) 95,74 %
05.05.2023 04:12 15,1 C 14,4 C 10,6 C 81 % 1015,2 hPa 0,0 l/m 0 min 0 min 0 W/m 3,2 km/h (1 Bft) 97,87 %
05.05.2023 04:14 15,2 C 14,4 C 10,6 C 81 % 1015,2 hPa 0,0 l/m 0 min 0 min 0 W/m 3,2 km/h (1 Bft) 97,87 %
05.05.2023 04:16 15,2 C 14,4 C 10,6 C 81 % 1015,2 hPa 0,0 l/m 0 min 0 min 0 W/m 3,2 km/h (1 Bft) 97,87 %
05.05.2023 04:18 15,2 C 14,4 C 10,6 C 82 % 1015,2 hPa 0,0 l/m 0 min 0 min 0 W/m 3,2 km/h (1 Bft) 100,00 %
05.05.2023 04:20 15,2 C 14,4 C 10,6 C 82 % 1015,2 hPa 0,0 l/m 0 min 0 min 0 W/m 3,2 km/h (1 Bft) 97,83 %
05.05.2023 04:22 15,3 C 14,4 C 10,6 C 82 % 1015,3 hPa 0,0 l/m 0 min 0 min 0 W/m 6,4 km/h (2 Bft) 100,00 %
05.05.2023 04:24 15,3 C 15,0 C 11,1 C 82 % 1015,3 hPa 0,0 l/m 0 min 0 min 0 W/m 3,2 km/h (1 Bft) 100,00 %
05.05.2023 04:26 15,4 C 15,0 C 11,1 C 83 % 1015,3 hPa 0,0 l/m 0 min 0 min 0 W/m 3,2 km/h (1 Bft) 98,00 %
05.05.2023 04:28 15,4 C 15,0 C 11,1 C 83 % 1015,3 hPa 0,0 l/m 0 min 0 min 0 W/m 9,7 km/h (2 Bft) 100,00 %
05.05.2023 04:30 15,5 C 15,0 C 11,1 C 83 % 1015,3 hPa 0,0 l/m 0 min 0 min 0 W/m 6,4 km/h (2 Bft) 100,00 %
05.05.2023 04:32 15,6 C 15,0 C 11,1 C 83 % 1015,2 hPa 0,0 l/m 0 min 0 min 0 W/m 3,2 km/h (1 Bft) 100,00 %
05.05.2023 04:34 15,6 C 15,0 C 11,1 C 83 % 1015,2 hPa 0,0 l/m 0 min 0 min 0 W/m 3,2 km/h (1 Bft) 100,00 %
05.05.2023 04:36 15,6 C 15,0 C 11,1 C 83 % 1015,3 hPa 0,0 l/m 0 min 0 min 0 W/m 3,2 km/h (1 Bft) 97,83 %
05.05.2023 04:38 15,6 C 15,0 C 11,1 C 83 % 1015,3 hPa 0,0 l/m 0 min 0 min 0 W/m 3,2 km/h (1 Bft) 97,87 %
05.05.2023 04:40 15,6 C 15,0 C 11,1 C 83 % 1015,3 hPa 0,0 l/m 0 min 0 min 0 W/m 3,2 km/h (1 Bft) 100,00 %
05.05.2023 04:42 15,6 C 14,4 C 11,1 C 83 % 1015,3 hPa 0,0 l/m 0 min 0 min 0 W/m 0,0 km/h (0 Bft) 100,00 %
05.05.2023 04:44 15,6 C 14,4 C 10,6 C 83 % 1015,3 hPa 0,0 l/m 0 min 0 min 0 W/m 0,0 km/h (0 Bft) 100,00 %
05.05.2023 04:46 15,6 C 14,4 C 10,6 C 83 % 1015,3 hPa 0,0 l/m 0 min 0 min 0 W/m 3,2 km/h (1 Bft) 100,00 %
05.05.2023 04:48 15,6 C 14,4 C 10,6 C 83 % 1015,3 hPa 0,0 l/m 0 min 0 min 0 W/m 3,2 km/h (1 Bft) 100,00 %
05.05.2023 04:50 15,6 C 14,4 C 10,6 C 83 % 1015,4 hPa 0,0 l/m 0 min 0 min 0 W/m 0,0 km/h (0 Bft) 97,87 %
05.05.2023 04:52 15,6 C 14,4 C 10,6 C 83 % 1015,4 hPa 0,0 l/m 0 min 0 min 0 W/m 3,2 km/h (1 Bft) 100,00 %
05.05.2023 04:54 15,6 C 14,4 C 10,6 C 83 % 1015,4 hPa 0,0 l/m 0 min 0 min 0 W/m 0,0 km/h (0 Bft) 100,00 %
05.05.2023 04:56 15,6 C 14,4 C 10,6 C 83 % 1015,3 hPa 0,0 l/m 0 min 0 min 0 W/m 0,0 km/h (0 Bft) 100,00 %
05.05.2023 04:58 15,6 C 14,4 C 10,6 C 83 % 1015,4 hPa 0,0 l/m 0 min 0 min 0 W/m 0,0 km/h (0 Bft) 100,00 %
05.05.2023 05:00 15,6 C 14,4 C 10,6 C 83 % 1015,4 hPa 0,0 l/m 0 min 0 min 0 W/m 0,0 km/h (0 Bft) 100,00 %
05.05.2023 05:02 15,6 C 14,4 C 10,6 C 83 % 1015,3 hPa 0,0 l/m 0 min 0 min 0 W/m 0,0 km/h (0 Bft) 100,00 %
05.05.2023 05:04 15,6 C 14,4 C 10,6 C 83 % 1015,4 hPa 0,0 l/m 0 min 0 min 0 W/m 0,0 km/h (0 Bft) 100,00 %
05.05.2023 05:06 15,6 C 13,9 C 10,6 C 83 % 1015,4 hPa 0,0 l/m 0 min 0 min 0 W/m 0,0 km/h (0 Bft) 97,87 %
05.05.2023 05:08 15,5 C 13,9 C 10,6 C 83 % 1015,4 hPa 0,0 l/m 0 min 0 min 0 W/m 3,2 km/h (1 Bft) 100,00 %
05.05.2023 05:10 15,5 C 13,9 C 10,0 C 83 % 1015,3 hPa 0,0 l/m 0 min 0 min 0 W/m 0,0 km/h (0 Bft) 100,00 %
05.05.2023 05:12 15,4 C 13,9 C 10,0 C 83 % 1015,3 hPa 0,0 l/m 0 min 0 min 0 W/m 3,2 km/h (1 Bft) 100,00 %
05.05.2023 05:14 15,4 C 13,9 C 10,0 C 83 % 1015,3 hPa 0,0 l/m 0 min 0 min 0 W/m 3,2 km/h (1 Bft) 100,00 %
05.05.2023 05:16 15,4 C 13,9 C 10,0 C 83 % 1015,3 hPa 0,0 l/m 0 min 0 min 0 W/m 3,2 km/h (1 Bft) 100,00 %
05.05.2023 05:18 15,4 C 13,9 C 10,0 C 83 % 1015,3 hPa 0,0 l/m 0 min 0 min 0 W/m 0,0 km/h (0 Bft) 97,87 %
05.05.2023 05:20 15,3 C 13,9 C 10,0 C 84 % 1015,3 hPa 0,0 l/m 0 min 0 min 0 W/m 0,0 km/h (0 Bft) 97,87 %
05.05.2023 05:22 15,3 C 13,9 C 10,0 C 84 % 1015,3 hPa 0,0 l/m 0 min 0 min 0 W/m 0,0 km/h (0 Bft) 97,87 %
05.05.2023 05:24 15,3 C 13,9 C 9,4 C 84 % 1015,3 hPa 0,0 l/m 0 min 0 min 0 W/m 3,2 km/h (1 Bft) 93,62 %
05.05.2023 05:26 15,3 C 13,9 C 9,4 C 84 % 1015,3 hPa 0,0 l/m 0 min 0 min 0 W/m 3,2 km/h (1 Bft) 95,74 %
05.05.2023 05:28 15,2 C 13,3 C 9,4 C 84 % 1015,3 hPa 0,0 l/m 0 min 0 min 0 W/m 3,2 km/h (1 Bft) 95,65 %
05.05.2023 05:30 15,2 C 13,3 C 9,4 C 84 % 1015,3 hPa 0,0 l/m 0 min 0 min 0 W/m 0,0 km/h (0 Bft) 95,74 %
05.05.2023 05:32 15,2 C 13,3 C 9,4 C 84 % 1015,3 hPa 0,0 l/m 0 min 0 min 0 W/m 0,0 km/h (0 Bft) 95,74 %
05.05.2023 05:34 15,2 C 12,8 C 9,4 C 84 % 1015,3 hPa 0,0 l/m 0 min 0 min 0 W/m 0,0 km/h (0 Bft) 93,62 %
05.05.2023 05:36 15,1 C 12,8 C 9,4 C 84 % 1015,3 hPa 0,0 l/m 0 min 0 min 0 W/m 0,0 km/h (0 Bft) 95,74 %
05.05.2023 05:38 15,1 C 12,8 C 9,4 C 84 % 1015,3 hPa 0,0 l/m 0 min 0 min 0 W/m 0,0 km/h (0 Bft) 93,62 %
05.05.2023 05:40 15,1 C 12,8 C 8,9 C 83 % 1015,3 hPa 0,0 l/m 0 min 0 min 0 W/m 0,0 km/h (0 Bft) 95,74 %
05.05.2023 05:42 15,0 C 12,8 C 8,9 C 83 % 1015,4 hPa 0,0 l/m 0 min 0 min 0 W/m 0,0 km/h (0 Bft) 95,74 %
05.05.2023 05:44 14,9 C 12,8 C 8,9 C 84 % 1015,4 hPa 0,0 l/m 0 min 0 min 0 W/m 0,0 km/h (0 Bft) 95,65 %
05.05.2023 05:46 14,9 C 12,8 C 8,9 C 84 % 1015,5 hPa 0,0 l/m 0 min 0 min 0 W/m 0,0 km/h (0 Bft) 95,74 %
05.05.2023 05:48 14,8 C 12,2 C 8,9 C 84 % 1015,5 hPa 0,0 l/m 0 min 0 min 0 W/m 0,0 km/h (0 Bft) 93,62 %
05.05.2023 05:50 14,8 C 12,2 C 8,9 C 84 % 1015,5 hPa 0,0 l/m 0 min 0 min 0 W/m 0,0 km/h (0 Bft) 95,74 %
05.05.2023 05:52 14,8 C 12,2 C 8,9 C 84 % 1015,5 hPa 0,0 l/m 0 min 0 min 0 W/m 0,0 km/h (0 Bft) 93,62 %
05.05.2023 05:54 14,7 C 12,2 C 8,9 C 84 % 1015,6 hPa 0,0 l/m 0 min 0 min 0 W/m 0,0 km/h (0 Bft) 93,62 %
05.05.2023 05:56 14,7 C 12,2 C 8,9 C 84 % 1015,6 hPa 0,0 l/m 0 min 0 min 0 W/m 0,0 km/h (0 Bft) 93,62 %
05.05.2023 05:58 14,6 C 12,2 C 8,9 C 84 % 1015,6 hPa 0,0 l/m 0 min 0 min 0 W/m 0,0 km/h (0 Bft) 91,49 %
05.05.2023 06:00 14,6 C 12,2 C 8,9 C 84 % 1015,6 hPa 0,0 l/m 0 min 0 min 0 W/m 0,0 km/h (0 Bft) 95,74 %
05.05.2023 06:02 14,5 C 12,2 C 8,9 C 84 % 1015,6 hPa 0,0 l/m 0 min 0 min 0 W/m 0,0 km/h (0 Bft) 95,65 %
05.05.2023 06:04 14,4 C 12,2 C 8,9 C 85 % 1015,6 hPa 0,0 l/m 0 min 0 min 0 W/m 0,0 km/h (0 Bft) 95,74 %
05.05.2023 06:07 14,3 C 12,2 C 8,9 C 85 % 1015,8 hPa 0,0 l/m 0 min 0 min 3 W/m 0,0 km/h (0 Bft) 94,52 %
05.05.2023 06:08 14,3 C 12,2 C 8,3 C 85 % 1015,8 hPa 0,0 l/m 0 min 0 min 5 W/m 0,0 km/h (0 Bft) 91,30 %
05.05.2023 06:12 14,3 C 12,2 C 8,3 C 85 % 1015,9 hPa 0,0 l/m 0 min 0 min 5 W/m 0,0 km/h (0 Bft) 90,20 %
05.05.2023 06:14 14,3 C 12,2 C 8,3 C 85 % 1015,9 hPa 0,0 l/m 0 min 0 min 7 W/m 3,2 km/h (1 Bft) 95,74 %
05.05.2023 06:16 14,3 C 12,2 C 8,3 C 85 % 1015,9 hPa 0,0 l/m 0 min 0 min 7 W/m 0,0 km/h (0 Bft) 97,87 %
05.05.2023 06:18 14,3 C 12,2 C 8,3 C 86 % 1015,9 hPa 0,0 l/m 0 min 0 min 9 W/m 3,2 km/h (1 Bft) 97,87 %
05.05.2023 06:20 14,2 C 12,2 C 8,9 C 86 % 1015,9 hPa 0,0 l/m 0 min 0 min 10 W/m 0,0 km/h (0 Bft) 97,87 %
05.05.2023 06:22 14,2 C 12,8 C 8,9 C 86 % 1015,9 hPa 0,0 l/m 0 min 0 min 11 W/m 0,0 km/h (0 Bft) 95,65 %
05.05.2023 06:24 14,1 C 12,8 C 8,9 C 86 % 1015,9 hPa 0,0 l/m 0 min 0 min 11 W/m 3,2 km/h (1 Bft) 97,87 %
05.05.2023 06:26 14,1 C 12,8 C 8,9 C 87 % 1015,9 hPa 0,0 l/m 0 min 0 min 12 W/m 0,0 km/h (0 Bft) 97,87 %
05.05.2023 06:28 14,1 C 12,2 C 8,9 C 87 % 1015,9 hPa 0,0 l/m 0 min 0 min 12 W/m 0,0 km/h (0 Bft) 97,87 %
05.05.2023 06:30 14,0 C 12,2 C 8,9 C 87 % 1015,9 hPa 0,0 l/m 0 min 0 min 14 W/m 0,0 km/h (0 Bft) 95,74 %
05.05.2023 06:32 13,9 C 12,2 C 8,9 C 87 % 1015,9 hPa 0,0 l/m 0 min 0 min 14 W/m 0,0 km/h (0 Bft) 100,00 %
05.05.2023 06:34 13,9 C 12,2 C 8,9 C 87 % 1016,0 hPa 0,0 l/m 0 min 0 min 14 W/m 0,0 km/h (0 Bft) 100,00 %
05.05.2023 06:36 13,9 C 12,2 C 8,9 C 87 % 1016,0 hPa 0,0 l/m 0 min 0 min 16 W/m 3,2 km/h (1 Bft) 100,00 %
05.05.2023 06:38 13,9 C 12,8 C 8,3 C 87 % 1016,0 hPa 0,0 l/m 0 min 0 min 16 W/m 0,0 km/h (0 Bft) 97,83 %
05.05.2023 06:40 13,9 C 12,8 C 8,3 C 87 % 1016,0 hPa 0,0 l/m 0 min 0 min 16 W/m 3,2 km/h (1 Bft) 100,00 %
05.05.2023 06:46 13,8 C 12,2 C 8,3 C 87 % 1016,1 hPa 0,0 l/m 0 min 0 min 16 W/m 0,0 km/h (0 Bft) 99,47 %
05.05.2023 06:50 13,8 C 12,2 C 8,3 C 87 % 1016,1 hPa 0,0 l/m 0 min 0 min 16 W/m 0,0 km/h (0 Bft) 100,00 %
05.05.2023 06:52 13,7 C 12,2 C 8,3 C 87 % 1016,1 hPa 0,0 l/m 0 min 0 min 18 W/m 0,0 km/h (0 Bft) 100,00 %
05.05.2023 06:54 13,7 C 12,2 C 8,3 C 87 % 1016,1 hPa 0,0 l/m 0 min 0 min 19 W/m 0,0 km/h (0 Bft) 98,04 %
05.05.2023 06:56 13,7 C 12,2 C 8,3 C 88 % 1016,2 hPa 0,0 l/m 0 min 0 min 21 W/m 0,0 km/h (0 Bft) 100,00 %
05.05.2023 06:58 13,6 C 12,2 C 8,3 C 88 % 1016,1 hPa 0,0 l/m 0 min 0 min 25 W/m 0,0 km/h (0 Bft) 100,00 %
05.05.2023 07:00 13,6 C 12,2 C 8,3 C 88 % 1016,2 hPa 0,0 l/m 0 min 0 min 27 W/m 0,0 km/h (0 Bft) 100,00 %
05.05.2023 07:02 13,6 C 12,2 C 8,3 C 88 % 1016,2 hPa 0,0 l/m 0 min 0 min 31 W/m 0,0 km/h (0 Bft) 97,92 %
05.05.2023 07:04 13,6 C 12,2 C 8,3 C 88 % 1016,2 hPa 0,0 l/m 0 min 0 min 35 W/m 0,0 km/h (0 Bft) 100,00 %
05.05.2023 07:06 13,6 C 12,2 C 8,3 C 88 % 1016,2 hPa 0,0 l/m 0 min 0 min 37 W/m 0,0 km/h (0 Bft) 95,00 %
05.05.2023 07:08 13,6 C 12,8 C 8,3 C 88 % 1016,2 hPa 0,0 l/m 0 min 0 min 33 W/m 0,0 km/h (0 Bft) 97,14 %
05.05.2023 07:10 13,5 C 12,8 C 8,9 C 88 % 1016,2 hPa 0,0 l/m 0 min 0 min 33 W/m 0,0 km/h (0 Bft) 100,00 %
05.05.2023 07:12 13,5 C 12,8 C 8,9 C 88 % 1016,2 hPa 0,0 l/m 0 min 0 min 39 W/m 0,0 km/h (0 Bft) 100,00 %
05.05.2023 07:14 13,5 C 12,8 C 8,9 C 88 % 1016,2 hPa 0,0 l/m 0 min 0 min 44 W/m 0,0 km/h (0 Bft) 97,83 %
05.05.2023 07:16 13,5 C 12,8 C 8,9 C 88 % 1016,3 hPa 0,0 l/m 0 min 0 min 47 W/m 0,0 km/h (0 Bft) 97,87 %
05.05.2023 07:18 13,5 C 12,8 C 8,9 C 89 % 1016,2 hPa 0,0 l/m 0 min 0 min 51 W/m 0,0 km/h (0 Bft) 97,87 %
05.05.2023 07:20 13,6 C 13,3 C 8,9 C 89 % 1016,3 hPa 0,0 l/m 0 min 0 min 56 W/m 3,2 km/h (1 Bft) 95,74 %
05.05.2023 07:22 13,6 C 13,3 C 9,4 C 89 % 1016,2 hPa 0,0 l/m 0 min 0 min 61 W/m 3,2 km/h (1 Bft) 95,74 %
05.05.2023 07:24 13,6 C 13,3 C 9,4 C 90 % 1016,3 hPa 0,0 l/m 0 min 0 min 63 W/m 3,2 km/h (1 Bft) 97,87 %
05.05.2023 07:26 13,7 C 13,9 C 9,4 C 90 % 1016,3 hPa 0,0 l/m 0 min 0 min 63 W/m 3,2 km/h (1 Bft) 97,87 %
05.05.2023 07:28 13,7 C 13,9 C 9,4 C 90 % 1016,3 hPa 0,0 l/m 0 min 0 min 62 W/m 3,2 km/h (1 Bft) 97,87 %
05.05.2023 07:30 13,7 C 13,9 C 10,0 C 90 % 1016,3 hPa 0,0 l/m 0 min 0 min 62 W/m 0,0 km/h (0 Bft) 97,83 %
05.05.2023 07:32 13,8 C 13,9 C 10,0 C 90 % 1016,3 hPa 0,0 l/m 0 min 0 min 62 W/m 6,4 km/h (2 Bft) 97,87 %
05.05.2023 07:34 13,8 C 13,9 C 10,0 C 90 % 1016,4 hPa 0,0 l/m 0 min 0 min 60 W/m 6,4 km/h (2 Bft) 97,87 %
05.05.2023 07:36 13,8 C 13,9 C 10,0 C 90 % 1016,3 hPa 0,0 l/m 0 min 0 min 58 W/m 0,0 km/h (0 Bft) 97,87 %
05.05.2023 07:38 13,9 C 13,9 C 10,0 C 90 % 1016,3 hPa 0,0 l/m 0 min 0 min 58 W/m 3,2 km/h (1 Bft) 95,74 %
05.05.2023 07:40 13,9 C 13,9 C 10,0 C 90 % 1016,3 hPa 0,0 l/m 0 min 0 min 58 W/m 3,2 km/h (1 Bft) 97,87 %
05.05.2023 07:42 13,9 C 14,4 C 10,0 C 90 % 1016,4 hPa 0,0 l/m 0 min 0 min 60 W/m 0,0 km/h (0 Bft) 97,87 %
05.05.2023 07:44 14,0 C 14,4 C 10,0 C 90 % 1016,4 hPa 0,0 l/m 0 min 0 min 63 W/m 0,0 km/h (0 Bft) 100,00 %
05.05.2023 07:46 14,0 C 14,4 C 10,6 C 91 % 1016,4 hPa 0,0 l/m 0 min 0 min 66 W/m 0,0 km/h (0 Bft) 100,00 %
05.05.2023 07:48 14,1 C 14,4 C 10,0 C 91 % 1016,5 hPa 0,0 l/m 0 min 0 min 68 W/m 3,2 km/h (1 Bft) 100,00 %
05.05.2023 07:50 14,1 C 14,4 C 10,6 C 91 % 1016,5 hPa 0,0 l/m 0 min 0 min 68 W/m 3,2 km/h (1 Bft) 100,00 %
05.05.2023 07:52 14,2 C 14,4 C 10,6 C 91 % 1016,5 hPa 0,0 l/m 0 min 0 min 74 W/m 3,2 km/h (1 Bft) 100,00 %
05.05.2023 07:54 14,3 C 14,4 C 10,6 C 91 % 1016,5 hPa 0,0 l/m 0 min 0 min 76 W/m 6,4 km/h (2 Bft) 100,00 %
05.05.2023 07:56 14,3 C 14,4 C 10,6 C 91 % 1016,5 hPa 0,0 l/m 0 min 0 min 77 W/m 3,2 km/h (1 Bft) 97,83 %
05.05.2023 07:58 14,3 C 14,4 C 10,6 C 90 % 1016,5 hPa 0,0 l/m 0 min 0 min 79 W/m 3,2 km/h (1 Bft) 97,87 %
05.05.2023 08:00 14,3 C 14,4 C 10,6 C 90 % 1016,5 hPa 0,0 l/m 0 min 0 min 81 W/m 6,4 km/h (2 Bft) 100,00 %
05.05.2023 08:02 14,4 C 15,0 C 11,1 C 90 % 1016,5 hPa 0,0 l/m 0 min 0 min 83 W/m 3,2 km/h (1 Bft) 100,00 %
05.05.2023 08:04 14,5 C 15,0 C 11,1 C 90 % 1016,5 hPa 0,0 l/m 0 min 0 min 83 W/m 3,2 km/h (1 Bft) 97,87 %
05.05.2023 08:06 14,6 C 15,0 C 11,1 C 90 % 1016,5 hPa 0,0 l/m 0 min 0 min 86 W/m 6,4 km/h (2 Bft) 96,61 %
05.05.2023 08:08 14,6 C 15,0 C 11,1 C 90 % 1016,5 hPa 0,0 l/m 0 min 0 min 96 W/m 3,2 km/h (1 Bft) 100,00 %
05.05.2023 08:10 14,7 C 15,0 C 11,1 C 90 % 1016,5 hPa 0,0 l/m 0 min 0 min 134 W/m 3,2 km/h (1 Bft) 97,87 %
05.05.2023 08:12 14,7 C 15,0 C 11,1 C 90 % 1016,5 hPa 0,0 l/m 2 min 0 min 177 W/m 3,2 km/h (1 Bft) 97,83 %
05.05.2023 08:14 14,8 C 15,6 C 11,1 C 89 % 1016,4 hPa 0,0 l/m 0 min 0 min 160 W/m 0,0 km/h (0 Bft) 97,87 %
05.05.2023 08:16 14,9 C 15,6 C 11,1 C 89 % 1016,4 hPa 0,0 l/m 2 min 0 min 218 W/m 3,2 km/h (1 Bft) 97,87 %
05.05.2023 08:18 14,9 C 15,6 C 11,1 C 89 % 1016,4 hPa 0,0 l/m 0 min 0 min 155 W/m 6,4 km/h (2 Bft) 97,87 %
05.05.2023 08:20 15,0 C 15,6 C 11,1 C 89 % 1016,4 hPa 0,0 l/m 2 min 0 min 275 W/m 6,4 km/h (2 Bft) 97,87 %
05.05.2023 08:22 15,1 C 15,6 C 11,7 C 89 % 1016,4 hPa 0,0 l/m 2 min 0 min 318 W/m 6,4 km/h (2 Bft) 97,87 %
05.05.2023 08:24 15,1 C 15,6 C 11,7 C 88 % 1016,4 hPa 0,0 l/m 2 min 0 min 301 W/m 6,4 km/h (2 Bft) 95,74 %
05.05.2023 08:26 15,2 C 16,1 C 11,7 C 88 % 1016,4 hPa 0,0 l/m 2 min 0 min 215 W/m 3,2 km/h (1 Bft) 95,65 %
05.05.2023 08:28 15,2 C 16,1 C 11,7 C 87 % 1016,5 hPa 0,0 l/m 2 min 0 min 262 W/m 3,2 km/h (1 Bft) 95,74 %
05.05.2023 08:30 15,3 C 16,1 C 11,7 C 87 % 1016,5 hPa 0,0 l/m 2 min 0 min 277 W/m 6,4 km/h (2 Bft) 95,74 %
05.05.2023 08:32 15,4 C 16,1 C 11,7 C 87 % 1016,5 hPa 0,0 l/m 2 min 0 min 338 W/m 0,0 km/h (0 Bft) 93,62 %
05.05.2023 08:34 15,6 C 16,7 C 11,7 C 86 % 1016,5 hPa 0,0 l/m 2 min 0 min 321 W/m 0,0 km/h (0 Bft) 95,74 %
05.05.2023 08:36 15,7 C 16,7 C 12,2 C 86 % 1016,5 hPa 0,0 l/m 2 min 0 min 349 W/m 0,0 km/h (0 Bft) 95,74 %
05.05.2023 08:38 15,7 C 16,7 C 12,2 C 86 % 1016,5 hPa 0,0 l/m 2 min 0 min 329 W/m 6,4 km/h (2 Bft) 95,74 %
05.05.2023 08:40 15,8 C 16,7 C 12,2 C 85 % 1016,6 hPa 0,0 l/m 2 min 0 min 314 W/m 6,4 km/h (2 Bft) 91,30 %
05.05.2023 08:42 15,9 C 16,7 C 12,2 C 85 % 1016,6 hPa 0,0 l/m 2 min 0 min 335 W/m 6,4 km/h (2 Bft) 95,74 %
05.05.2023 08:44 16,1 C 17,2 C 12,2 C 84 % 1016,7 hPa 0,0 l/m 2 min 0 min 319 W/m 6,4 km/h (2 Bft) 95,74 %
05.05.2023 08:46 16,2 C 17,8 C 12,2 C 83 % 1016,7 hPa 0,0 l/m 2 min 0 min 383 W/m 6,4 km/h (2 Bft) 91,49 %
05.05.2023 08:48 16,3 C 18,9 C 12,8 C 83 % 1016,7 hPa 0,0 l/m 2 min 0 min 359 W/m 6,4 km/h (2 Bft) 95,74 %
05.05.2023 08:50 16,4 C 20,0 C 12,8 C 82 % 1016,7 hPa 0,0 l/m 2 min 0 min 377 W/m 6,4 km/h (2 Bft) 95,74 %
05.05.2023 08:52 16,6 C 19,4 C 12,8 C 82 % 1016,7 hPa 0,0 l/m 2 min 0 min 331 W/m 19,3 km/h (3 Bft) 91,30 %
05.05.2023 08:54 16,7 C 20,0 C 12,8 C 81 % 1016,7 hPa 0,0 l/m 2 min 0 min 333 W/m 6,4 km/h (2 Bft) 95,74 %
05.05.2023 08:56 16,8 C 20,0 C 12,8 C 81 % 1016,8 hPa 0,0 l/m 2 min 0 min 316 W/m 6,4 km/h (2 Bft) 93,62 %
05.05.2023 08:58 16,9 C 20,0 C 13,3 C 81 % 1016,8 hPa 0,0 l/m 2 min 0 min 330 W/m 6,4 km/h (2 Bft) 95,74 %
05.05.2023 09:00 17,0 C 20,0 C 13,3 C 80 % 1016,8 hPa 0,0 l/m 2 min 0 min 266 W/m 12,9 km/h (3 Bft) 95,74 %
05.05.2023 09:02 17,1 C 19,4 C 13,3 C 80 % 1016,8 hPa 0,0 l/m 2 min 0 min 225 W/m 6,4 km/h (2 Bft) 91,49 %
05.05.2023 09:04 17,1 C 19,4 C 13,3 C 80 % 1016,8 hPa 0,0 l/m 2 min 0 min 222 W/m 6,4 km/h (2 Bft) 92,86 %
05.05.2023 09:06 17,2 C 19,4 C 13,9 C 79 % 1016,8 hPa 0,0 l/m 2 min 0 min 254 W/m 12,9 km/h (3 Bft) 98,28 %
05.05.2023 09:08 17,2 C 19,4 C 13,9 C 79 % 1016,8 hPa 0,0 l/m 2 min 0 min 235 W/m 6,4 km/h (2 Bft) 97,14 %
05.05.2023 09:10 17,3 C 20,0 C 13,9 C 79 % 1016,8 hPa 0,0 l/m 2 min 0 min 298 W/m 6,4 km/h (2 Bft) 97,87 %
05.05.2023 09:12 17,4 C 20,0 C 13,9 C 80 % 1016,8 hPa 0,0 l/m 2 min 0 min 352 W/m 3,2 km/h (1 Bft) 95,74 %
05.05.2023 09:14 17,4 C 20,0 C 14,4 C 79 % 1016,9 hPa 0,0 l/m 2 min 0 min 297 W/m 12,9 km/h (3 Bft) 100,00 %
05.05.2023 09:16 17,6 C 20,6 C 14,4 C 79 % 1016,9 hPa 0,0 l/m 2 min 0 min 267 W/m 3,2 km/h (1 Bft) 97,87 %
05.05.2023 09:18 17,6 C 20,6 C 14,4 C 80 % 1016,9 hPa 0,0 l/m 2 min 0 min 303 W/m 6,4 km/h (2 Bft) 97,87 %
05.05.2023 09:20 17,7 C 21,1 C 15,0 C 79 % 1016,9 hPa 0,0 l/m 2 min 0 min 308 W/m 3,2 km/h (1 Bft) 97,83 %
05.05.2023 09:22 17,7 C 20,6 C 15,0 C 79 % 1016,9 hPa 0,0 l/m 2 min 0 min 315 W/m 6,4 km/h (2 Bft) 95,74 %
05.05.2023 09:24 17,8 C 20,6 C 15,0 C 78 % 1016,9 hPa 0,0 l/m 2 min 0 min 343 W/m 6,4 km/h (2 Bft) 97,87 %
05.05.2023 09:26 17,8 C 21,1 C 15,6 C 78 % 1016,9 hPa 0,0 l/m 2 min 0 min 397 W/m 12,9 km/h (3 Bft) 97,87 %
05.05.2023 09:28 17,9 C 21,1 C 15,6 C 78 % 1016,9 hPa 0,0 l/m 2 min 0 min 383 W/m 12,9 km/h (3 Bft) 95,74 %
05.05.2023 09:30 18,0 C 21,1 C 15,6 C 77 % 1016,9 hPa 0,0 l/m 2 min 0 min 406 W/m 16,1 km/h (3 Bft) 97,87 %
05.05.2023 09:32 18,0 C 20,6 C 15,6 C 77 % 1016,9 hPa 0,0 l/m 2 min 0 min 415 W/m 12,9 km/h (3 Bft) 97,87 %
05.05.2023 09:34 18,1 C 20,6 C 15,6 C 77 % 1017,0 hPa 0,0 l/m 2 min 0 min 361 W/m 12,9 km/h (3 Bft) 95,65 %
05.05.2023 09:36 18,1 C 20,0 C 15,6 C 76 % 1017,0 hPa 0,0 l/m 2 min 0 min 282 W/m 3,2 km/h (1 Bft) 97,87 %
05.05.2023 09:38 18,1 C 20,0 C 15,6 C 77 % 1017,0 hPa 0,0 l/m 2 min 0 min 320 W/m 6,4 km/h (2 Bft) 97,87 %
05.05.2023 09:40 18,2 C 20,6 C 15,6 C 76 % 1017,0 hPa 0,0 l/m 2 min 0 min 355 W/m 6,4 km/h (2 Bft) 95,74 %
05.05.2023 09:42 18,2 C 21,1 C 15,6 C 76 % 1017,0 hPa 0,0 l/m 2 min 0 min 363 W/m 3,2 km/h (1 Bft) 95,74 %
05.05.2023 09:44 18,3 C 21,7 C 16,1 C 77 % 1017,0 hPa 0,0 l/m 2 min 0 min 341 W/m 6,4 km/h (2 Bft) 97,87 %
05.05.2023 09:46 18,4 C 21,7 C 15,6 C 77 % 1017,0 hPa 0,0 l/m 2 min 0 min 326 W/m 6,4 km/h (2 Bft) 95,74 %
05.05.2023 09:48 18,5 C 21,1 C 15,6 C 76 % 1017,0 hPa 0,0 l/m 2 min 0 min 416 W/m 9,7 km/h (2 Bft) 97,83 %
05.05.2023 09:50 18,6 C 21,1 C 16,1 C 76 % 1017,0 hPa 0,0 l/m 2 min 0 min 459 W/m 6,4 km/h (2 Bft) 97,87 %
05.05.2023 09:52 18,6 C 21,1 C 16,1 C 76 % 1017,1 hPa 0,0 l/m 2 min 0 min 432 W/m 9,7 km/h (2 Bft) 100,00 %
05.05.2023 09:54 18,6 C 21,7 C 16,1 C 76 % 1017,0 hPa 0,0 l/m 2 min 0 min 380 W/m 6,4 km/h (2 Bft) 97,87 %
05.05.2023 09:56 18,7 C 21,7 C 16,1 C 76 % 1017,1 hPa 0,0 l/m 2 min 0 min 480 W/m 12,9 km/h (3 Bft) 100,00 %
05.05.2023 09:58 18,7 C 21,7 C 15,6 C 76 % 1017,1 hPa 0,0 l/m 2 min 0 min 499 W/m 6,4 km/h (2 Bft) 100,00 %
05.05.2023 10:00 18,8 C 21,1 C 15,6 C 76 % 1017,1 hPa 0,0 l/m 2 min 0 min 352 W/m 6,4 km/h (2 Bft) 100,00 %
05.05.2023 10:02 18,8 C 21,1 C 15,6 C 76 % 1017,0 hPa 0,0 l/m 2 min 0 min 340 W/m 9,7 km/h (2 Bft) 97,83 %
05.05.2023 10:04 18,9 C 21,1 C 15,6 C 76 % 1017,0 hPa 0,0 l/m 2 min 0 min 490 W/m 9,7 km/h (2 Bft) 100,00 %
05.05.2023 10:06 18,9 C 20,6 C 15,6 C 76 % 1017,0 hPa 0,0 l/m 2 min 0 min 406 W/m 12,9 km/h (3 Bft) 97,87 %
05.05.2023 10:08 18,9 C 20,6 C 15,6 C 75 % 1017,0 hPa 0,0 l/m 0 min 0 min 279 W/m 9,7 km/h (2 Bft) 100,00 %
05.05.2023 10:10 18,9 C 20,0 C 15,6 C 75 % 1017,0 hPa 0,0 l/m 0 min 0 min 285 W/m 12,9 km/h (3 Bft) 100,00 %
05.05.2023 10:12 18,9 C 20,0 C 15,0 C 75 % 1017,0 hPa 0,0 l/m 2 min 0 min 302 W/m 6,4 km/h (2 Bft) 100,00 %
05.05.2023 10:14 18,9 C 20,0 C 15,6 C 75 % 1017,0 hPa 0,0 l/m 2 min 0 min 340 W/m 6,4 km/h (2 Bft) 97,87 %
05.05.2023 10:16 18,9 C 20,6 C 15,0 C 76 % 1017,1 hPa 0,0 l/m 2 min 0 min 500 W/m 6,4 km/h (2 Bft) 100,00 %
05.05.2023 10:18 19,0 C 21,1 C 15,6 C 75 % 1017,1 hPa 0,0 l/m 2 min 0 min 516 W/m 6,4 km/h (2 Bft) 100,00 %
05.05.2023 10:20 19,1 C 21,7 C 15,6 C 75 % 1017,1 hPa 0,0 l/m 2 min 0 min 480 W/m 9,7 km/h (2 Bft) 100,00 %
05.05.2023 10:22 19,1 C 21,7 C 15,6 C 75 % 1017,0 hPa 0,0 l/m 2 min 0 min 451 W/m 6,4 km/h (2 Bft) 97,87 %
05.05.2023 10:24 19,2 C 21,7 C 15,6 C 75 % 1017,0 hPa 0,0 l/m 2 min 0 min 465 W/m 12,9 km/h (3 Bft) 100,00 %
05.05.2023 10:26 19,2 C 22,2 C 15,6 C 76 % 1017,0 hPa 0,0 l/m 2 min 0 min 508 W/m 9,7 km/h (2 Bft) 100,00 %
05.05.2023 10:28 19,3 C 22,2 C 15,6 C 74 % 1017,0 hPa 0,0 l/m 2 min 0 min 537 W/m 6,4 km/h (2 Bft) 100,00 %
05.05.2023 10:30 19,3 C 22,2 C 15,6 C 74 % 1017,1 hPa 0,0 l/m 2 min 0 min 542 W/m 12,9 km/h (3 Bft) 100,00 %
05.05.2023 10:32 19,3 C 22,2 C 15,6 C 74 % 1017,0 hPa 0,0 l/m 2 min 0 min 549 W/m 9,7 km/h (2 Bft) 100,00 %
05.05.2023 10:34 19,3 C 22,8 C 15,6 C 74 % 1016,9 hPa 0,0 l/m 2 min 0 min 587 W/m 6,4 km/h (2 Bft) 100,00 %
05.05.2023 10:36 19,4 C 22,8 C 16,1 C 74 % 1017,0 hPa 0,0 l/m 2 min 0 min 615 W/m 3,2 km/h (1 Bft) 100,00 %
05.05.2023 10:38 19,4 C 22,8 C 16,7 C 74 % 1016,9 hPa 0,0 l/m 2 min 0 min 644 W/m 6,4 km/h (2 Bft) 100,00 %
05.05.2023 10:40 19,6 C 22,8 C 16,7 C 74 % 1016,9 hPa 0,0 l/m 2 min 0 min 656 W/m 6,4 km/h (2 Bft) 100,00 %
05.05.2023 10:42 19,6 C 22,8 C 16,7 C 74 % 1017,0 hPa 0,0 l/m 2 min 0 min 680 W/m 6,4 km/h (2 Bft) 100,00 %
05.05.2023 10:44 19,7 C 22,8 C 16,7 C 74 % 1017,0 hPa 0,0 l/m 2 min 0 min 688 W/m 12,9 km/h (3 Bft) 100,00 %
05.05.2023 10:46 19,8 C 22,8 C 16,1 C 73 % 1016,9 hPa 0,0 l/m 2 min 0 min 768 W/m 9,7 km/h (2 Bft) 100,00 %
05.05.2023 10:48 19,8 C 22,2 C 16,1 C 72 % 1017,0 hPa 0,0 l/m 2 min 0 min 728 W/m 12,9 km/h (3 Bft) 100,00 %
05.05.2023 10:50 19,9 C 21,7 C 16,1 C 72 % 1017,0 hPa 0,0 l/m 2 min 0 min 750 W/m 6,4 km/h (2 Bft) 100,00 %
05.05.2023 10:52 20,1 C 21,7 C 16,1 C 72 % 1017,1 hPa 0,0 l/m 2 min 0 min 728 W/m 9,7 km/h (2 Bft) 97,87 %
05.05.2023 10:54 20,1 C 21,7 C 16,1 C 72 % 1017,0 hPa 0,0 l/m 2 min 0 min 418 W/m 6,4 km/h (2 Bft) 97,87 %
05.05.2023 10:56 20,2 C 22,2 C 16,7 C 72 % 1017,0 hPa 0,0 l/m 2 min 0 min 739 W/m 9,7 km/h (2 Bft) 97,83 %
05.05.2023 10:58 20,2 C 22,8 C 16,7 C 71 % 1017,0 hPa 0,0 l/m 2 min 0 min 735 W/m 3,2 km/h (1 Bft) 97,87 %
05.05.2023 11:00 20,3 C 22,8 C 16,7 C 71 % 1017,0 hPa 0,0 l/m 2 min 0 min 696 W/m 9,7 km/h (2 Bft) 97,87 %
05.05.2023 11:02 20,3 C 22,8 C 16,7 C 71 % 1017,0 hPa 0,0 l/m 2 min 0 min 696 W/m 9,7 km/h (2 Bft) 97,87 %
05.05.2023 11:04 20,4 C 22,8 C 16,7 C 70 % 1017,0 hPa 0,0 l/m 2 min 0 min 540 W/m 9,7 km/h (2 Bft) 96,00 %
05.05.2023 11:06 20,4 C 22,2 C 16,7 C 70 % 1017,1 hPa 0,0 l/m 0 min 0 min 316 W/m 12,9 km/h (3 Bft) 97,87 %
05.05.2023 11:08 20,5 C 22,2 C 16,7 C 70 % 1017,1 hPa 0,0 l/m 0 min 0 min 329 W/m 16,1 km/h (3 Bft) 95,74 %
05.05.2023 11:10 20,6 C 22,2 C 16,7 C 70 % 1017,0 hPa 0,0 l/m 2 min 0 min 398 W/m 9,7 km/h (2 Bft) 97,87 %
05.05.2023 11:12 20,6 C 22,8 C 16,7 C 70 % 1017,0 hPa 0,0 l/m 2 min 0 min 364 W/m 6,4 km/h (2 Bft) 95,65 %
05.05.2023 11:14 20,7 C 22,8 C 16,7 C 70 % 1017,0 hPa 0,0 l/m 2 min 0 min 364 W/m 12,9 km/h (3 Bft) 97,87 %
05.05.2023 11:16 20,7 C 21,7 C 16,1 C 69 % 1017,0 hPa 0,0 l/m 2 min 0 min 352 W/m 9,7 km/h (2 Bft) 97,87 %
05.05.2023 11:18 20,7 C 22,2 C 16,7 C 70 % 1017,0 hPa 0,0 l/m 2 min 0 min 398 W/m 9,7 km/h (2 Bft) 97,87 %
05.05.2023 11:20 20,8 C 22,2 C 16,7 C 70 % 1017,1 hPa 0,0 l/m 2 min 0 min 623 W/m 9,7 km/h (2 Bft) 95,74 %
05.05.2023 11:22 20,8 C 22,2 C 16,7 C 69 % 1017,1 hPa 0,0 l/m 0 min 0 min 268 W/m 6,4 km/h (2 Bft) 93,62 %
05.05.2023 11:24 20,8 C 23,9 C 16,7 C 69 % 1017,1 hPa 0,0 l/m 0 min 0 min 265 W/m 12,9 km/h (3 Bft) 95,74 %
05.05.2023 11:26 20,8 C 24,4 C 16,7 C 69 % 1017,0 hPa 0,0 l/m 2 min 0 min 634 W/m 9,7 km/h (2 Bft) 91,30 %
05.05.2023 11:28 20,9 C 25,0 C 17,2 C 69 % 1017,0 hPa 0,0 l/m 2 min 0 min 802 W/m 9,7 km/h (2 Bft) 95,74 %
05.05.2023 11:30 20,9 C 23,3 C 17,2 C 68 % 1017,1 hPa 0,0 l/m 2 min 0 min 500 W/m 12,9 km/h (3 Bft) 95,74 %
05.05.2023 11:32 20,9 C 22,2 C 17,2 C 67 % 1017,1 hPa 0,0 l/m 0 min 0 min 307 W/m 6,4 km/h (2 Bft) 97,87 %
05.05.2023 11:34 20,8 C 22,8 C 17,2 C 68 % 1017,0 hPa 0,0 l/m 2 min 0 min 429 W/m 9,7 km/h (2 Bft) 97,87 %
05.05.2023 11:36 20,8 C 22,8 C 17,2 C 68 % 1017,0 hPa 0,0 l/m 2 min 0 min 550 W/m 6,4 km/h (2 Bft) 97,87 %
05.05.2023 11:38 20,9 C 22,2 C 17,2 C 68 % 1017,0 hPa 0,0 l/m 0 min 0 min 346 W/m 6,4 km/h (2 Bft) 95,65 %
05.05.2023 11:40 20,8 C 22,2 C 17,2 C 67 % 1017,0 hPa 0,0 l/m 2 min 0 min 386 W/m 3,2 km/h (1 Bft) 97,87 %
05.05.2023 11:42 20,8 C 21,7 C 17,2 C 68 % 1017,0 hPa 0,0 l/m 2 min 0 min 420 W/m 6,4 km/h (2 Bft) 95,74 %
05.05.2023 11:44 20,7 C 22,2 C 17,2 C 68 % 1017,0 hPa 0,0 l/m 2 min 0 min 383 W/m 6,4 km/h (2 Bft) 97,87 %
05.05.2023 11:46 20,7 C 23,9 C 17,8 C 68 % 1017,0 hPa 0,0 l/m 2 min 0 min 726 W/m 6,4 km/h (2 Bft) 97,87 %
05.05.2023 11:48 20,8 C 23,9 C 17,8 C 68 % 1016,9 hPa 0,0 l/m 2 min 0 min 713 W/m 6,4 km/h (2 Bft) 97,87 %
05.05.2023 11:50 20,8 C 23,3 C 17,8 C 68 % 1017,0 hPa 0,0 l/m 2 min 0 min 505 W/m 9,7 km/h (2 Bft) 93,62 %
05.05.2023 11:52 20,8 C 22,8 C 17,8 C 68 % 1017,0 hPa 0,0 l/m 2 min 0 min 486 W/m 12,9 km/h (3 Bft) 97,87 %
05.05.2023 11:54 20,9 C 22,8 C 17,8 C 68 % 1017,0 hPa 0,0 l/m 2 min 0 min 438 W/m 19,3 km/h (3 Bft) 100,00 %
05.05.2023 11:56 20,9 C 22,8 C 17,8 C 68 % 1017,0 hPa 0,0 l/m 0 min 0 min 363 W/m 9,7 km/h (2 Bft) 100,00 %
05.05.2023 11:58 20,9 C 22,8 C 17,8 C 68 % 1017,0 hPa 0,0 l/m 2 min 0 min 465 W/m 12,9 km/h (3 Bft) 97,87 %
05.05.2023 12:00 20,9 C 22,2 C 17,2 C 68 % 1016,9 hPa 0,0 l/m 2 min 0 min 419 W/m 6,4 km/h (2 Bft) 100,00 %
05.05.2023 12:02 20,9 C 22,2 C 17,2 C 68 % 1016,9 hPa 0,0 l/m 0 min 0 min 318 W/m 6,4 km/h (2 Bft) 100,00 %
05.05.2023 12:04 20,9 C 22,2 C 17,2 C 68 % 1016,9 hPa 0,0 l/m 0 min 0 min 321 W/m 3,2 km/h (1 Bft) 100,00 %
05.05.2023 12:07 20,9 C 22,2 C 17,2 C 68 % 1016,8 hPa 0,0 l/m 0 min 0 min 261 W/m 9,7 km/h (2 Bft) 98,59 %
05.05.2023 12:08 20,9 C 22,2 C 17,2 C 68 % 1016,8 hPa 0,0 l/m 0 min 0 min 259 W/m 9,7 km/h (2 Bft) 100,00 %
05.05.2023 12:12 20,9 C 21,1 C 16,7 C 68 % 1016,8 hPa 0,0 l/m 0 min 0 min 250 W/m 16,1 km/h (3 Bft) 95,83 %
05.05.2023 12:14 20,9 C 21,1 C 16,7 C 69 % 1016,8 hPa 0,0 l/m 0 min 0 min 237 W/m 6,4 km/h (2 Bft) 100,00 %
05.05.2023 12:16 20,8 C 20,6 C 16,7 C 69 % 1016,8 hPa 0,0 l/m 0 min 0 min 224 W/m 6,4 km/h (2 Bft) 98,00 %
05.05.2023 12:18 20,8 C 20,6 C 16,7 C 69 % 1016,8 hPa 0,0 l/m 0 min 2 min 208 W/m 9,7 km/h (2 Bft) 97,87 %
05.05.2023 12:20 20,8 C 20,6 C 16,1 C 71 % 1016,7 hPa 0,0 l/m 0 min 2 min 188 W/m 6,4 km/h (2 Bft) 97,87 %
05.05.2023 12:22 20,6 C 19,4 C 15,6 C 72 % 1016,7 hPa 0,0 l/m 0 min 2 min 180 W/m 6,4 km/h (2 Bft) 97,83 %
05.05.2023 12:24 20,5 C 19,4 C 15,0 C 73 % 1016,7 hPa 0,0 l/m 0 min 2 min 178 W/m 3,2 km/h (1 Bft) 97,87 %
05.05.2023 12:26 20,3 C 19,4 C 15,0 C 75 % 1016,7 hPa 0,0 l/m 0 min 0 min 184 W/m 3,2 km/h (1 Bft) 95,74 %
05.05.2023 12:28 20,2 C 19,4 C 15,0 C 75 % 1016,6 hPa 0,0 l/m 0 min 0 min 209 W/m 3,2 km/h (1 Bft) 97,87 %
05.05.2023 12:30 20,1 C 19,4 C 15,0 C 75 % 1016,6 hPa 0,0 l/m 0 min 0 min 249 W/m 6,4 km/h (2 Bft) 97,87 %
05.05.2023 12:32 20,0 C 19,4 C 15,6 C 75 % 1016,6 hPa 0,0 l/m 0 min 0 min 281 W/m 6,4 km/h (2 Bft) 97,87 %
05.05.2023 12:34 19,9 C 20,0 C 15,6 C 75 % 1016,6 hPa 0,0 l/m 0 min 0 min 320 W/m 3,2 km/h (1 Bft) 97,87 %
05.05.2023 12:36 19,9 C 20,0 C 16,1 C 76 % 1016,6 hPa 0,0 l/m 0 min 0 min 350 W/m 3,2 km/h (1 Bft) 97,83 %
05.05.2023 12:38 19,9 C 20,6 C 16,1 C 76 % 1016,6 hPa 0,0 l/m 0 min 0 min 365 W/m 3,2 km/h (1 Bft) 95,74 %
05.05.2023 12:40 19,9 C 20,6 C 16,1 C 75 % 1016,6 hPa 0,0 l/m 0 min 0 min 350 W/m 3,2 km/h (1 Bft) 97,87 %
05.05.2023 12:42 19,9 C 21,1 C 16,7 C 75 % 1016,5 hPa 0,0 l/m 0 min 0 min 351 W/m 3,2 km/h (1 Bft) 95,74 %
05.05.2023 12:44 20,0 C 21,1 C 16,7 C 75 % 1016,5 hPa 0,0 l/m 0 min 0 min 322 W/m 3,2 km/h (1 Bft) 97,87 %
05.05.2023 12:46 20,1 C 21,1 C 16,7 C 75 % 1016,6 hPa 0,0 l/m 0 min 0 min 311 W/m 6,4 km/h (2 Bft) 95,74 %
05.05.2023 12:48 20,2 C 21,1 C 16,7 C 74 % 1016,6 hPa 0,0 l/m 0 min 0 min 310 W/m 6,4 km/h (2 Bft) 97,83 %
05.05.2023 12:50 20,2 C 21,1 C 16,7 C 73 % 1016,6 hPa 0,0 l/m 0 min 0 min 303 W/m 6,4 km/h (2 Bft) 97,87 %
05.05.2023 12:52 20,3 C 21,1 C 16,7 C 73 % 1016,5 hPa 0,0 l/m 0 min 0 min 298 W/m 3,2 km/h (1 Bft) 97,87 %
05.05.2023 12:54 20,4 C 21,1 C 16,7 C 73 % 1016,5 hPa 0,0 l/m 0 min 0 min 292 W/m 3,2 km/h (1 Bft) 100,00 %
05.05.2023 12:56 20,5 C 21,1 C 16,7 C 72 % 1016,5 hPa 0,0 l/m 0 min 0 min 274 W/m 6,4 km/h (2 Bft) 97,87 %
05.05.2023 12:58 20,6 C 21,1 C 16,7 C 71 % 1016,5 hPa 0,0 l/m 0 min 0 min 258 W/m 9,7 km/h (2 Bft) 95,74 %
05.05.2023 13:00 20,6 C 21,1 C 16,7 C 72 % 1016,4 hPa 0,0 l/m 0 min 0 min 227 W/m 6,4 km/h (2 Bft) 97,87 %
05.05.2023 13:02 20,6 C 20,6 C 16,7 C 72 % 1016,4 hPa 0,0 l/m 0 min 0 min 194 W/m 9,7 km/h (2 Bft) 97,83 %
05.05.2023 13:04 20,6 C 20,6 C 16,1 C 71 % 1016,4 hPa 0,0 l/m 0 min 0 min 182 W/m 3,2 km/h (1 Bft) 97,87 %
05.05.2023 13:06 20,6 C 20,6 C 16,1 C 71 % 1016,4 hPa 0,0 l/m 0 min 0 min 190 W/m 6,4 km/h (2 Bft) 97,87 %
05.05.2023 13:08 20,6 C 20,6 C 16,1 C 71 % 1016,4 hPa 0,0 l/m 0 min 0 min 193 W/m 3,2 km/h (1 Bft) 97,87 %
05.05.2023 13:10 20,6 C 20,6 C 16,1 C 71 % 1016,4 hPa 0,0 l/m 0 min 0 min 196 W/m 6,4 km/h (2 Bft) 97,30 %
05.05.2023 13:12 20,6 C 20,0 C 16,1 C 70 % 1016,4 hPa 0,0 l/m 0 min 0 min 193 W/m 3,2 km/h (1 Bft) 98,11 %
05.05.2023 13:14 20,6 C 20,0 C 16,1 C 70 % 1016,4 hPa 0,0 l/m 0 min 0 min 196 W/m 6,4 km/h (2 Bft) 96,00 %
05.05.2023 13:16 20,6 C 20,0 C 15,6 C 71 % 1016,4 hPa 0,0 l/m 0 min 0 min 200 W/m 6,4 km/h (2 Bft) 97,83 %
05.05.2023 13:18 20,6 C 20,0 C 16,1 C 70 % 1016,4 hPa 0,0 l/m 0 min 0 min 210 W/m 6,4 km/h (2 Bft) 100,00 %
05.05.2023 13:20 20,6 C 20,0 C 16,1 C 71 % 1016,4 hPa 0,0 l/m 0 min 0 min 213 W/m 6,4 km/h (2 Bft) 100,00 %
05.05.2023 13:22 20,5 C 20,0 C 16,1 C 71 % 1016,4 hPa 0,0 l/m 0 min 0 min 196 W/m 6,4 km/h (2 Bft) 95,65 %
05.05.2023 13:24 20,5 C 20,0 C 16,1 C 71 % 1016,4 hPa 0,0 l/m 0 min 0 min 164 W/m 6,4 km/h (2 Bft) 95,74 %
05.05.2023 13:26 20,5 C 20,0 C 16,1 C 71 % 1016,3 hPa 0,0 l/m 0 min 0 min 150 W/m 6,4 km/h (2 Bft) 95,74 %
05.05.2023 13:28 20,4 C 20,0 C 16,1 C 71 % 1016,3 hPa 0,0 l/m 0 min 0 min 157 W/m 6,4 km/h (2 Bft) 95,74 %
05.05.2023 13:30 20,4 C 20,0 C 16,1 C 70 % 1016,3 hPa 0,0 l/m 0 min 0 min 184 W/m 9,7 km/h (2 Bft) 95,74 %
05.05.2023 13:32 20,4 C 20,0 C 16,1 C 71 % 1016,4 hPa 0,0 l/m 0 min 0 min 187 W/m 6,4 km/h (2 Bft) 95,74 %
05.05.2023 13:34 20,4 C 20,0 C 16,1 C 71 % 1016,3 hPa 0,0 l/m 0 min 2 min 183 W/m 6,4 km/h (2 Bft) 97,83 %
05.05.2023 13:36 20,3 C 20,0 C 16,1 C 70 % 1016,2 hPa 0,0 l/m 0 min 2 min 185 W/m 12,9 km/h (3 Bft) 93,62 %
05.05.2023 13:38 20,3 C 20,0 C 15,6 C 71 % 1016,2 hPa 0,0 l/m 0 min 2 min 203 W/m 6,4 km/h (2 Bft) 93,62 %
05.05.2023 13:40 20,3 C 20,0 C 15,6 C 73 % 1016,3 hPa 0,0 l/m 0 min 2 min 217 W/m 9,7 km/h (2 Bft) 95,74 %
05.05.2023 13:42 20,3 C 20,0 C 15,0 C 74 % 1016,3 hPa 0,0 l/m 0 min 2 min 240 W/m 16,1 km/h (3 Bft) 95,74 %
05.05.2023 13:44 20,2 C 20,0 C 14,4 C 74 % 1016,3 hPa 0,0 l/m 0 min 2 min 271 W/m 16,1 km/h (3 Bft) 95,74 %
05.05.2023 13:46 20,1 C 20,0 C 14,4 C 75 % 1016,3 hPa 0,0 l/m 0 min 0 min 286 W/m 12,9 km/h (3 Bft) 95,74 %
05.05.2023 13:48 20,0 C 20,0 C 15,0 C 75 % 1016,4 hPa 0,0 l/m 0 min 0 min 284 W/m 12,9 km/h (3 Bft) 95,74 %
05.05.2023 13:50 19,9 C 19,4 C 15,0 C 74 % 1016,4 hPa 0,2 l/m 0 min 0 min 281 W/m 12,9 km/h (3 Bft) 91,30 %
05.05.2023 13:52 19,8 C 19,4 C 15,0 C 74 % 1016,4 hPa 0,0 l/m 0 min 0 min 284 W/m 12,9 km/h (3 Bft) 95,74 %
05.05.2023 13:54 19,8 C 20,0 C 15,0 C 75 % 1016,4 hPa 0,0 l/m 0 min 0 min 304 W/m 9,7 km/h (2 Bft) 95,74 %
05.05.2023 13:56 19,8 C 20,0 C 15,6 C 76 % 1016,4 hPa 0,0 l/m 0 min 0 min 337 W/m 19,3 km/h (3 Bft) 91,49 %
05.05.2023 13:58 19,7 C 20,0 C 15,6 C 76 % 1016,4 hPa 0,0 l/m 0 min 0 min 366 W/m 16,1 km/h (3 Bft) 95,74 %
05.05.2023 14:00 19,7 C 20,0 C 15,6 C 74 % 1016,4 hPa 0,0 l/m 0 min 0 min 378 W/m 19,3 km/h (3 Bft) 95,74 %
05.05.2023 14:02 19,7 C 20,0 C 15,6 C 75 % 1016,4 hPa 0,0 l/m 0 min 0 min 391 W/m 16,1 km/h (3 Bft) 97,87 %
05.05.2023 14:04 19,7 C 20,6 C 15,6 C 75 % 1016,4 hPa 0,0 l/m 2 min 0 min 405 W/m 12,9 km/h (3 Bft) 97,87 %
05.05.2023 14:06 19,7 C 20,6 C 16,1 C 75 % 1016,4 hPa 0,0 l/m 2 min 0 min 420 W/m 16,1 km/h (3 Bft) 97,87 %
05.05.2023 14:08 19,7 C 20,6 C 15,6 C 75 % 1016,5 hPa 0,0 l/m 2 min 0 min 433 W/m 12,9 km/h (3 Bft) 100,00 %
05.05.2023 14:10 19,7 C 20,6 C 15,6 C 74 % 1016,4 hPa 0,0 l/m 2 min 0 min 427 W/m 19,3 km/h (3 Bft) 100,00 %
05.05.2023 14:12 19,7 C 20,6 C 15,6 C 73 % 1016,5 hPa 0,0 l/m 2 min 0 min 416 W/m 9,7 km/h (2 Bft) 100,00 %
05.05.2023 14:14 19,7 C 21,1 C 16,1 C 73 % 1016,4 hPa 0,0 l/m 2 min 0 min 524 W/m 9,7 km/h (2 Bft) 100,00 %
05.05.2023 14:16 19,8 C 21,7 C 16,1 C 73 % 1016,4 hPa 0,0 l/m 2 min 0 min 548 W/m 9,7 km/h (2 Bft) 100,00 %
05.05.2023 14:18 19,8 C 21,1 C 16,1 C 73 % 1016,4 hPa 0,0 l/m 2 min 0 min 464 W/m 12,9 km/h (3 Bft) 100,00 %
05.05.2023 14:20 19,8 C 21,1 C 16,1 C 72 % 1016,4 hPa 0,0 l/m 2 min 0 min 432 W/m 6,4 km/h (2 Bft) 100,00 %
05.05.2023 14:22 19,9 C 21,1 C 16,1 C 72 % 1016,4 hPa 0,0 l/m 2 min 0 min 459 W/m 12,9 km/h (3 Bft) 100,00 %
05.05.2023 14:24 19,9 C 21,7 C 16,1 C 72 % 1016,3 hPa 0,0 l/m 2 min 0 min 480 W/m 12,9 km/h (3 Bft) 100,00 %
05.05.2023 14:26 19,9 C 21,1 C 16,1 C 72 % 1016,3 hPa 0,0 l/m 2 min 0 min 400 W/m 9,7 km/h (2 Bft) 100,00 %
05.05.2023 14:28 19,9 C 21,1 C 16,1 C 72 % 1016,4 hPa 0,0 l/m 2 min 0 min 414 W/m 6,4 km/h (2 Bft) 100,00 %
05.05.2023 14:30 19,9 C 21,7 C 16,1 C 72 % 1016,3 hPa 0,0 l/m 2 min 0 min 480 W/m 6,4 km/h (2 Bft) 100,00 %
05.05.2023 14:32 20,1 C 21,7 C 16,1 C 73 % 1016,3 hPa 0,0 l/m 2 min 0 min 520 W/m 6,4 km/h (2 Bft) 100,00 %
05.05.2023 14:34 20,2 C 22,2 C 16,7 C 73 % 1016,4 hPa 0,0 l/m 2 min 0 min 475 W/m 6,4 km/h (2 Bft) 100,00 %
05.05.2023 14:36 20,3 C 22,2 C 16,7 C 73 % 1016,4 hPa 0,0 l/m 2 min 0 min 472 W/m 6,4 km/h (2 Bft) 100,00 %
05.05.2023 14:38 20,3 C 22,8 C 16,7 C 71 % 1016,4 hPa 0,0 l/m 2 min 0 min 491 W/m 3,2 km/h (1 Bft) 100,00 %
05.05.2023 14:40 20,4 C 22,8 C 16,7 C 71 % 1016,3 hPa 0,0 l/m 2 min 0 min 558 W/m 9,7 km/h (2 Bft) 100,00 %
05.05.2023 14:42 20,6 C 22,8 C 16,7 C 71 % 1016,3 hPa 0,0 l/m 2 min 0 min 436 W/m 9,7 km/h (2 Bft) 100,00 %
05.05.2023 14:44 20,6 C 22,8 C 17,2 C 71 % 1016,3 hPa 0,0 l/m 2 min 0 min 386 W/m 12,9 km/h (3 Bft) 100,00 %
05.05.2023 14:46 20,6 C 21,7 C 16,7 C 69 % 1016,2 hPa 0,0 l/m 0 min 0 min 327 W/m 16,1 km/h (3 Bft) 100,00 %
05.05.2023 14:48 20,6 C 21,1 C 16,7 C 69 % 1016,2 hPa 0,0 l/m 0 min 0 min 288 W/m 9,7 km/h (2 Bft) 100,00 %
05.05.2023 14:50 20,6 C 21,1 C 16,7 C 69 % 1016,3 hPa 0,0 l/m 0 min 0 min 259 W/m 12,9 km/h (3 Bft) 100,00 %
05.05.2023 14:52 20,6 C 20,6 C 16,7 C 68 % 1016,2 hPa 0,0 l/m 0 min 0 min 265 W/m 16,1 km/h (3 Bft) 98,28 %
05.05.2023 14:54 20,5 C 20,6 C 16,1 C 69 % 1016,1 hPa 0,0 l/m 0 min 0 min 309 W/m 6,4 km/h (2 Bft) 97,87 %
05.05.2023 14:56 20,5 C 20,6 C 16,1 C 69 % 1016,1 hPa 0,0 l/m 0 min 0 min 344 W/m 9,7 km/h (2 Bft) 100,00 %
05.05.2023 14:58 20,4 C 20,6 C 16,1 C 69 % 1016,2 hPa 0,0 l/m 0 min 0 min 320 W/m 12,9 km/h (3 Bft) 100,00 %
05.05.2023 15:00 20,4 C 20,6 C 16,1 C 70 % 1016,2 hPa 0,0 l/m 0 min 0 min 300 W/m 6,4 km/h (2 Bft) 100,00 %
05.05.2023 15:02 20,5 C 20,6 C 16,1 C 70 % 1016,2 hPa 0,0 l/m 0 min 0 min 278 W/m 12,9 km/h (3 Bft) 100,00 %
05.05.2023 15:04 20,4 C 20,6 C 16,1 C 70 % 1016,2 hPa 0,0 l/m 0 min 0 min 244 W/m 12,9 km/h (3 Bft) 100,00 %
05.05.2023 15:06 20,4 C 20,6 C 16,1 C 70 % 1016,2 hPa 0,0 l/m 0 min 0 min 223 W/m 16,1 km/h (3 Bft) 100,00 %
05.05.2023 15:08 20,4 C 20,6 C 16,1 C 70 % 1016,2 hPa 0,0 l/m 0 min 0 min 243 W/m 6,4 km/h (2 Bft) 100,00 %
05.05.2023 15:10 20,4 C 20,6 C 16,1 C 70 % 1016,3 hPa 0,0 l/m 0 min 0 min 330 W/m 16,1 km/h (3 Bft) 100,00 %
05.05.2023 15:12 20,4 C 21,1 C 16,1 C 70 % 1016,2 hPa 0,0 l/m 2 min 0 min 445 W/m 12,9 km/h (3 Bft) 100,00 %
05.05.2023 15:14 20,4 C 21,7 C 16,7 C 69 % 1016,2 hPa 0,0 l/m 2 min 0 min 478 W/m 6,4 km/h (2 Bft) 100,00 %
05.05.2023 15:16 20,4 C 22,2 C 16,7 C 70 % 1016,2 hPa 0,0 l/m 2 min 0 min 510 W/m 6,4 km/h (2 Bft) 100,00 %
05.05.2023 15:18 20,4 C 22,8 C 16,7 C 69 % 1016,2 hPa 0,0 l/m 2 min 0 min 514 W/m 16,1 km/h (3 Bft) 97,87 %
05.05.2023 15:20 20,5 C 23,3 C 16,7 C 67 % 1016,2 hPa 0,0 l/m 2 min 0 min 640 W/m 6,4 km/h (2 Bft) 100,00 %
05.05.2023 15:22 20,6 C 22,8 C 16,7 C 68 % 1016,2 hPa 0,0 l/m 2 min 0 min 434 W/m 12,9 km/h (3 Bft) 100,00 %
05.05.2023 15:24 20,7 C 22,8 C 17,2 C 68 % 1016,2 hPa 0,0 l/m 2 min 0 min 406 W/m 6,4 km/h (2 Bft) 100,00 %
05.05.2023 15:26 20,8 C 22,8 C 16,7 C 68 % 1016,2 hPa 0,0 l/m 2 min 0 min 504 W/m 12,9 km/h (3 Bft) 100,00 %
05.05.2023 15:28 20,8 C 23,3 C 17,2 C 67 % 1016,2 hPa 0,0 l/m 2 min 0 min 612 W/m 16,1 km/h (3 Bft) 97,87 %
05.05.2023 15:30 20,9 C 23,9 C 17,2 C 68 % 1016,2 hPa 0,0 l/m 2 min 0 min 831 W/m 3,2 km/h (1 Bft) 97,87 %
05.05.2023 15:32 21,1 C 23,3 C 17,2 C 67 % 1016,2 hPa 0,0 l/m 2 min 0 min 542 W/m 12,9 km/h (3 Bft) 95,74 %
05.05.2023 15:34 21,1 C 22,8 C 17,2 C 67 % 1016,2 hPa 0,0 l/m 2 min 0 min 373 W/m 16,1 km/h (3 Bft) 97,87 %
05.05.2023 15:36 21,1 C 22,2 C 17,2 C 66 % 1016,1 hPa 0,0 l/m 0 min 0 min 336 W/m 12,9 km/h (3 Bft) 97,83 %
05.05.2023 15:38 21,1 C 21,7 C 17,2 C 66 % 1016,1 hPa 0,0 l/m 0 min 0 min 321 W/m 12,9 km/h (3 Bft) 95,74 %
05.05.2023 15:40 21,0 C 21,1 C 16,7 C 65 % 1016,1 hPa 0,0 l/m 0 min 0 min 276 W/m 9,7 km/h (2 Bft) 95,74 %
05.05.2023 15:42 20,9 C 21,1 C 16,7 C 66 % 1016,1 hPa 0,0 l/m 0 min 0 min 232 W/m 3,2 km/h (1 Bft) 97,87 %
05.05.2023 15:44 20,8 C 20,6 C 16,7 C 66 % 1016,1 hPa 0,0 l/m 0 min 0 min 202 W/m 16,1 km/h (3 Bft) 97,87 %
05.05.2023 15:46 20,7 C 20,6 C 16,7 C 66 % 1016,0 hPa 0,0 l/m 0 min 0 min 205 W/m 12,9 km/h (3 Bft) 97,87 %
05.05.2023 15:48 20,6 C 20,0 C 16,1 C 66 % 1015,9 hPa 0,0 l/m 0 min 0 min 221 W/m 9,7 km/h (2 Bft) 95,74 %
05.05.2023 15:50 20,6 C 20,0 C 16,1 C 66 % 1015,9 hPa 0,0 l/m 0 min 0 min 241 W/m 6,4 km/h (2 Bft) 95,65 %
05.05.2023 15:52 20,5 C 20,0 C 16,1 C 66 % 1015,9 hPa 0,0 l/m 0 min 0 min 255 W/m 6,4 km/h (2 Bft) 95,74 %
05.05.2023 15:54 20,5 C 20,0 C 16,1 C 67 % 1015,9 hPa 0,0 l/m 0 min 0 min 250 W/m 12,9 km/h (3 Bft) 93,62 %
05.05.2023 15:56 20,4 C 20,0 C 16,1 C 67 % 1015,9 hPa 0,0 l/m 0 min 0 min 231 W/m 16,1 km/h (3 Bft) 91,49 %
05.05.2023 15:58 20,4 C 20,0 C 16,1 C 67 % 1015,9 hPa 0,0 l/m 0 min 0 min 217 W/m 12,9 km/h (3 Bft) 95,74 %
05.05.2023 16:00 20,3 C 20,0 C 16,1 C 68 % 1015,9 hPa 0,0 l/m 0 min 0 min 193 W/m 12,9 km/h (3 Bft) 91,49 %
05.05.2023 16:02 20,2 C 20,0 C 16,1 C 68 % 1015,9 hPa 0,0 l/m 0 min 0 min 177 W/m 16,1 km/h (3 Bft) 85,11 %
05.05.2023 16:04 20,1 C 19,4 C 15,6 C 67 % 1015,8 hPa 0,0 l/m 0 min 0 min 172 W/m 9,7 km/h (2 Bft) 95,65 %
05.05.2023 16:06 20,1 C 19,4 C 15,6 C 67 % 1015,8 hPa 0,0 l/m 0 min 0 min 179 W/m 12,9 km/h (3 Bft) 96,61 %
05.05.2023 16:08 20,1 C 19,4 C 15,6 C 67 % 1015,8 hPa 0,0 l/m 0 min 0 min 168 W/m 12,9 km/h (3 Bft) 94,29 %
05.05.2023 16:10 20,0 C 19,4 C 15,6 C 68 % 1015,9 hPa 0,0 l/m 0 min 0 min 144 W/m 12,9 km/h (3 Bft) 95,74 %
05.05.2023 16:12 20,0 C 19,4 C 15,6 C 68 % 1015,9 hPa 0,0 l/m 0 min 0 min 124 W/m 6,4 km/h (2 Bft) 95,74 %
05.05.2023 16:14 19,9 C 19,4 C 15,6 C 69 % 1016,0 hPa 0,0 l/m 0 min 0 min 95 W/m 12,9 km/h (3 Bft) 95,74 %
05.05.2023 16:16 19,9 C 18,9 C 15,6 C 69 % 1016,0 hPa 0,0 l/m 0 min 0 min 79 W/m 3,2 km/h (1 Bft) 95,83 %
05.05.2023 16:18 19,8 C 18,9 C 15,6 C 70 % 1016,0 hPa 0,0 l/m 0 min 0 min 81 W/m 16,1 km/h (3 Bft) 93,48 %
05.05.2023 16:20 19,8 C 18,9 C 15,0 C 70 % 1016,1 hPa 0,0 l/m 0 min 0 min 90 W/m 12,9 km/h (3 Bft) 95,74 %
05.05.2023 16:22 19,5 C 18,3 C 15,0 C 69 % 1016,2 hPa 0,0 l/m 0 min 0 min 66 W/m 22,5 km/h (4 Bft) 95,74 %
05.05.2023 16:24 19,0 C 17,2 C 13,9 C 69 % 1016,3 hPa 0,0 l/m 0 min 0 min 59 W/m 25,7 km/h (4 Bft) 95,74 %
05.05.2023 16:26 18,7 C 17,2 C 13,3 C 70 % 1016,3 hPa 0,0 l/m 0 min 0 min 91 W/m 19,3 km/h (3 Bft) 95,74 %
05.05.2023 16:28 18,3 C 16,7 C 13,3 C 71 % 1016,3 hPa 0,0 l/m 0 min 0 min 129 W/m 19,3 km/h (3 Bft) 95,74 %
05.05.2023 16:30 18,1 C 16,7 C 12,8 C 72 % 1016,3 hPa 0,0 l/m 0 min 0 min 139 W/m 19,3 km/h (3 Bft) 95,74 %
05.05.2023 16:32 17,8 C 16,1 C 12,8 C 74 % 1016,5 hPa 0,0 l/m 0 min 0 min 136 W/m 22,5 km/h (4 Bft) 95,65 %
05.05.2023 16:34 17,6 C 16,1 C 12,8 C 75 % 1016,4 hPa 0,0 l/m 0 min 0 min 127 W/m 25,7 km/h (4 Bft) 91,49 %
05.05.2023 16:36 17,4 C 16,1 C 12,2 C 76 % 1016,5 hPa 0,0 l/m 0 min 0 min 112 W/m 16,1 km/h (3 Bft) 97,87 %
05.05.2023 16:38 17,2 C 16,1 C 12,2 C 77 % 1016,5 hPa 0,0 l/m 0 min 0 min 98 W/m 9,7 km/h (2 Bft) 97,87 %
05.05.2023 16:40 17,1 C 15,6 C 12,2 C 78 % 1016,6 hPa 0,0 l/m 0 min 0 min 89 W/m 16,1 km/h (3 Bft) 97,87 %
05.05.2023 16:42 16,9 C 15,6 C 12,2 C 78 % 1016,6 hPa 0,0 l/m 0 min 0 min 91 W/m 12,9 km/h (3 Bft) 97,87 %
05.05.2023 16:44 16,8 C 15,6 C 12,2 C 79 % 1016,6 hPa 0,0 l/m 0 min 0 min 105 W/m 19,3 km/h (3 Bft) 93,62 %
05.05.2023 16:46 16,7 C 15,6 C 12,2 C 79 % 1016,5 hPa 0,0 l/m 0 min 0 min 121 W/m 12,9 km/h (3 Bft) 100,00 %
05.05.2023 16:48 16,6 C 15,6 C 12,2 C 79 % 1016,5 hPa 0,0 l/m 0 min 0 min 131 W/m 16,1 km/h (3 Bft) 95,74 %
05.05.2023 16:50 16,4 C 15,6 C 12,2 C 80 % 1016,5 hPa 0,0 l/m 0 min 0 min 144 W/m 16,1 km/h (3 Bft) 97,87 %
05.05.2023 16:52 16,4 C 15,6 C 12,2 C 80 % 1016,5 hPa 0,0 l/m 0 min 2 min 179 W/m 12,9 km/h (3 Bft) 95,74 %
05.05.2023 16:54 16,3 C 15,6 C 11,7 C 81 % 1016,5 hPa 0,0 l/m 0 min 2 min 215 W/m 12,9 km/h (3 Bft) 100,00 %
05.05.2023 16:56 16,3 C 16,1 C 11,7 C 83 % 1016,6 hPa 0,0 l/m 0 min 2 min 251 W/m 9,7 km/h (2 Bft) 100,00 %
05.05.2023 16:58 16,3 C 15,6 C 11,7 C 83 % 1016,5 hPa 0,0 l/m 0 min 2 min 218 W/m 12,9 km/h (3 Bft) 97,87 %
05.05.2023 17:00 16,3 C 15,6 C 11,7 C 84 % 1016,5 hPa 0,0 l/m 0 min 2 min 149 W/m 16,1 km/h (3 Bft) 100,00 %
05.05.2023 17:02 16,3 C 15,6 C 11,7 C 84 % 1016,5 hPa 0,0 l/m 0 min 0 min 119 W/m 16,1 km/h (3 Bft) 97,87 %
05.05.2023 17:04 16,3 C 15,6 C 11,7 C 85 % 1016,5 hPa 0,0 l/m 0 min 0 min 87 W/m 9,7 km/h (2 Bft) 100,00 %
05.05.2023 17:06 16,2 C 15,6 C 11,7 C 85 % 1016,6 hPa 0,0 l/m 0 min 0 min 69 W/m 12,9 km/h (3 Bft) 100,00 %
05.05.2023 17:08 16,2 C 15,6 C 11,7 C 85 % 1016,6 hPa 0,0 l/m 0 min 0 min 68 W/m 9,7 km/h (2 Bft) 100,00 %
05.05.2023 17:10 16,1 C 15,0 C 11,7 C 85 % 1016,6 hPa 0,0 l/m 0 min 0 min 82 W/m 12,9 km/h (3 Bft) 100,00 %
05.05.2023 17:12 16,0 C 15,6 C 11,7 C 86 % 1016,7 hPa 0,0 l/m 0 min 0 min 105 W/m 16,1 km/h (3 Bft) 100,00 %
05.05.2023 17:14 15,9 C 15,6 C 11,7 C 86 % 1016,7 hPa 0,0 l/m 0 min 0 min 118 W/m 9,7 km/h (2 Bft) 100,00 %
05.05.2023 17:16 15,9 C 15,0 C 11,7 C 86 % 1016,6 hPa 0,0 l/m 0 min 0 min 121 W/m 9,7 km/h (2 Bft) 100,00 %
05.05.2023 17:18 15,8 C 15,0 C 11,1 C 86 % 1016,7 hPa 0,0 l/m 0 min 0 min 121 W/m 16,1 km/h (3 Bft) 100,00 %
05.05.2023 17:20 15,8 C 15,6 C 11,1 C 86 % 1016,7 hPa 0,0 l/m 0 min 0 min 125 W/m 12,9 km/h (3 Bft) 97,87 %
05.05.2023 17:22 15,7 C 15,6 C 11,7 C 87 % 1016,7 hPa 0,0 l/m 0 min 0 min 131 W/m 12,9 km/h (3 Bft) 97,87 %
05.05.2023 17:24 15,7 C 15,6 C 11,7 C 87 % 1016,7 hPa 0,0 l/m 0 min 0 min 121 W/m 9,7 km/h (2 Bft) 100,00 %
05.05.2023 17:26 15,7 C 15,6 C 11,7 C 87 % 1016,8 hPa 0,0 l/m 0 min 0 min 124 W/m 12,9 km/h (3 Bft) 97,87 %
05.05.2023 17:28 15,7 C 15,6 C 11,7 C 88 % 1016,7 hPa 0,0 l/m 0 min 0 min 150 W/m 16,1 km/h (3 Bft) 97,87 %
05.05.2023 17:30 15,7 C 16,1 C 11,7 C 88 % 1016,8 hPa 0,0 l/m 0 min 0 min 184 W/m 12,9 km/h (3 Bft) 97,83 %
05.05.2023 17:32 15,7 C 16,1 C 11,7 C 88 % 1016,6 hPa 0,0 l/m 0 min 0 min 248 W/m 9,7 km/h (2 Bft) 97,87 %
05.05.2023 17:34 15,7 C 16,1 C 11,7 C 88 % 1016,6 hPa 0,0 l/m 2 min 0 min 255 W/m 19,3 km/h (3 Bft) 97,87 %
05.05.2023 17:36 15,7 C 16,1 C 12,2 C 88 % 1016,8 hPa 0,0 l/m 0 min 0 min 232 W/m 12,9 km/h (3 Bft) 97,87 %
05.05.2023 17:38 15,8 C 16,1 C 12,2 C 88 % 1016,8 hPa 0,0 l/m 0 min 0 min 208 W/m 19,3 km/h (3 Bft) 97,87 %
05.05.2023 17:40 15,8 C 16,1 C 12,2 C 88 % 1016,7 hPa 0,0 l/m 0 min 0 min 206 W/m 22,5 km/h (4 Bft) 97,87 %
05.05.2023 17:42 15,8 C 16,1 C 12,2 C 88 % 1016,8 hPa 0,0 l/m 0 min 0 min 206 W/m 16,1 km/h (3 Bft) 97,87 %
05.05.2023 17:44 15,7 C 16,1 C 12,2 C 88 % 1016,7 hPa 0,0 l/m 0 min 0 min 213 W/m 9,7 km/h (2 Bft) 95,65 %
05.05.2023 17:46 15,8 C 16,7 C 12,2 C 88 % 1016,7 hPa 0,0 l/m 0 min 0 min 224 W/m 12,9 km/h (3 Bft) 97,87 %
05.05.2023 17:48 15,8 C 16,7 C 12,2 C 88 % 1016,7 hPa 0,0 l/m 0 min 0 min 231 W/m 16,1 km/h (3 Bft) 95,74 %
05.05.2023 17:50 15,8 C 17,2 C 12,2 C 88 % 1016,7 hPa 0,0 l/m 2 min 0 min 270 W/m 12,9 km/h (3 Bft) 95,74 %
05.05.2023 17:52 15,8 C 18,3 C 12,8 C 88 % 1016,8 hPa 0,0 l/m 2 min 0 min 304 W/m 16,1 km/h (3 Bft) 97,87 %
05.05.2023 17:54 16,0 C 18,9 C 12,8 C 88 % 1016,7 hPa 0,0 l/m 2 min 0 min 350 W/m 16,1 km/h (3 Bft) 95,74 %
05.05.2023 17:56 16,1 C 19,4 C 13,3 C 88 % 1016,7 hPa 0,0 l/m 2 min 0 min 340 W/m 12,9 km/h (3 Bft) 95,65 %
05.05.2023 17:58 16,3 C 20,0 C 13,3 C 88 % 1016,8 hPa 0,0 l/m 2 min 0 min 433 W/m 12,9 km/h (3 Bft) 100,00 %
05.05.2023 18:00 16,3 C 19,4 C 13,3 C 86 % 1016,8 hPa 0,0 l/m 2 min 0 min 418 W/m 16,1 km/h (3 Bft) 97,87 %
05.05.2023 18:02 16,4 C 18,9 C 13,3 C 86 % 1016,7 hPa 0,0 l/m 2 min 0 min 251 W/m 16,1 km/h (3 Bft) 100,00 %
05.05.2023 18:04 16,4 C 17,8 C 12,8 C 85 % 1016,7 hPa 0,0 l/m 0 min 0 min 197 W/m 12,9 km/h (3 Bft) 100,00 %
05.05.2023 18:07 16,4 C 17,2 C 12,8 C 85 % 1016,7 hPa 0,0 l/m 0 min 0 min 159 W/m 12,9 km/h (3 Bft) 98,59 %
05.05.2023 18:08 16,4 C 16,7 C 12,8 C 85 % 1016,7 hPa 0,0 l/m 0 min 0 min 143 W/m 9,7 km/h (2 Bft) 100,00 %
05.05.2023 18:12 16,3 C 16,7 C 12,2 C 85 % 1016,7 hPa 0,0 l/m 0 min 0 min 148 W/m 9,7 km/h (2 Bft) 96,30 %
05.05.2023 18:14 16,3 C 16,1 C 12,2 C 85 % 1016,7 hPa 0,0 l/m 0 min 0 min 160 W/m 12,9 km/h (3 Bft) 100,00 %
05.05.2023 18:16 16,2 C 16,1 C 12,2 C 85 % 1016,7 hPa 0,0 l/m 0 min 0 min 133 W/m 16,1 km/h (3 Bft) 100,00 %
05.05.2023 18:18 16,2 C 16,1 C 12,2 C 85 % 1016,7 hPa 0,0 l/m 0 min 0 min 113 W/m 16,1 km/h (3 Bft) 97,87 %
05.05.2023 18:20 16,2 C 15,6 C 11,7 C 85 % 1016,7 hPa 0,0 l/m 0 min 0 min 94 W/m 16,1 km/h (3 Bft) 100,00 %
05.05.2023 18:22 16,1 C 15,6 C 11,7 C 85 % 1016,6 hPa 0,0 l/m 0 min 0 min 84 W/m 9,7 km/h (2 Bft) 100,00 %
05.05.2023 18:24 16,1 C 15,6 C 11,7 C 85 % 1016,6 hPa 0,0 l/m 0 min 0 min 80 W/m 12,9 km/h (3 Bft) 100,00 %
05.05.2023 18:26 16,0 C 15,0 C 11,7 C 85 % 1016,6 hPa 0,0 l/m 0 min 0 min 73 W/m 12,9 km/h (3 Bft) 100,00 %
05.05.2023 18:28 15,9 C 15,0 C 11,7 C 86 % 1016,5 hPa 0,0 l/m 0 min 0 min 60 W/m 9,7 km/h (2 Bft) 100,00 %
05.05.2023 18:30 15,8 C 15,0 C 11,1 C 86 % 1016,5 hPa 0,0 l/m 0 min 0 min 44 W/m 12,9 km/h (3 Bft) 100,00 %
05.05.2023 18:32 15,8 C 15,0 C 11,1 C 86 % 1016,6 hPa 0,0 l/m 0 min 0 min 32 W/m 9,7 km/h (2 Bft) 100,00 %
05.05.2023 18:34 15,7 C 14,4 C 11,1 C 86 % 1016,5 hPa 0,0 l/m 0 min 0 min 23 W/m 6,4 km/h (2 Bft) 100,00 %
05.05.2023 18:36 15,7 C 14,4 C 11,1 C 86 % 1016,6 hPa 0,0 l/m 0 min 0 min 19 W/m 6,4 km/h (2 Bft) 95,74 %
05.05.2023 18:38 15,6 C 14,4 C 11,1 C 86 % 1016,7 hPa 0,0 l/m 0 min 0 min 16 W/m 6,4 km/h (2 Bft) 97,87 %
05.05.2023 18:40 15,6 C 14,4 C 11,1 C 87 % 1016,7 hPa 0,0 l/m 0 min 0 min 14 W/m 6,4 km/h (2 Bft) 97,87 %
05.05.2023 18:42 15,5 C 14,4 C 11,1 C 87 % 1016,7 hPa 0,0 l/m 0 min 0 min 14 W/m 3,2 km/h (1 Bft) 97,83 %
05.05.2023 18:44 15,5 C 14,4 C 11,1 C 87 % 1016,7 hPa 0,0 l/m 0 min 0 min 13 W/m 12,9 km/h (3 Bft) 95,74 %
05.05.2023 18:46 15,4 C 14,4 C 11,1 C 87 % 1016,7 hPa 0,0 l/m 0 min 0 min 13 W/m 6,4 km/h (2 Bft) 95,74 %
05.05.2023 18:48 15,4 C 14,4 C 11,1 C 87 % 1016,7 hPa 0,0 l/m 0 min 0 min 15 W/m 3,2 km/h (1 Bft) 97,87 %
05.05.2023 18:50 15,3 C 14,4 C 11,1 C 87 % 1016,7 hPa 0,0 l/m 0 min 0 min 16 W/m 3,2 km/h (1 Bft) 93,62 %
05.05.2023 18:52 15,3 C 14,4 C 10,6 C 87 % 1016,7 hPa 0,0 l/m 0 min 0 min 17 W/m 6,4 km/h (2 Bft) 93,62 %
05.05.2023 18:54 15,3 C 14,4 C 10,6 C 88 % 1016,6 hPa 0,0 l/m 0 min 0 min 18 W/m 3,2 km/h (1 Bft) 93,62 %
05.05.2023 18:56 15,2 C 14,4 C 10,6 C 88 % 1016,5 hPa 0,0 l/m 0 min 0 min 19 W/m 9,7 km/h (2 Bft) 95,65 %
05.05.2023 18:58 15,2 C 14,4 C 10,6 C 88 % 1016,5 hPa 0,0 l/m 0 min 0 min 19 W/m 3,2 km/h (1 Bft) 93,62 %
05.05.2023 19:00 15,1 C 13,9 C 10,6 C 88 % 1016,5 hPa 0,0 l/m 0 min 0 min 18 W/m 12,9 km/h (3 Bft) 97,87 %
05.05.2023 19:02 15,1 C 13,9 C 10,6 C 88 % 1016,5 hPa 0,0 l/m 0 min 0 min 18 W/m 6,4 km/h (2 Bft) 95,74 %
05.05.2023 19:04 15,1 C 14,4 C 10,6 C 88 % 1016,5 hPa 0,0 l/m 0 min 0 min 19 W/m 3,2 km/h (1 Bft) 93,75 %
05.05.2023 19:06 15,1 C 14,4 C 10,6 C 88 % 1016,6 hPa 0,0 l/m 0 min 0 min 19 W/m 6,4 km/h (2 Bft) 95,65 %
05.05.2023 19:08 15,0 C 13,9 C 10,6 C 88 % 1016,6 hPa 0,0 l/m 0 min 0 min 18 W/m 12,9 km/h (3 Bft) 93,62 %
05.05.2023 19:10 14,9 C 13,9 C 10,6 C 88 % 1016,7 hPa 0,0 l/m 0 min 0 min 14 W/m 9,7 km/h (2 Bft) 95,74 %
05.05.2023 19:12 14,9 C 13,9 C 10,6 C 88 % 1016,8 hPa 0,0 l/m 0 min 0 min 10 W/m 6,4 km/h (2 Bft) 93,62 %
05.05.2023 19:14 14,9 C 13,9 C 10,6 C 89 % 1016,9 hPa 0,0 l/m 0 min 0 min 8 W/m 6,4 km/h (2 Bft) 93,62 %
05.05.2023 19:16 14,9 C 13,9 C 10,6 C 89 % 1016,9 hPa 0,0 l/m 0 min 0 min 8 W/m 3,2 km/h (1 Bft) 93,62 %
05.05.2023 19:18 14,9 C 13,9 C 10,6 C 89 % 1016,9 hPa 0,0 l/m 0 min 0 min 9 W/m 6,4 km/h (2 Bft) 97,87 %
05.05.2023 19:20 14,9 C 13,9 C 10,6 C 89 % 1017,0 hPa 0,0 l/m 0 min 0 min 10 W/m 3,2 km/h (1 Bft) 95,74 %
05.05.2023 19:22 14,9 C 13,9 C 10,6 C 89 % 1016,9 hPa 0,0 l/m 0 min 0 min 11 W/m 3,2 km/h (1 Bft) 93,48 %
05.05.2023 19:24 14,8 C 13,9 C 10,6 C 89 % 1016,9 hPa 0,0 l/m 0 min 2 min 10 W/m 3,2 km/h (1 Bft) 93,62 %
05.05.2023 19:26 14,8 C 13,9 C 10,6 C 89 % 1017,0 hPa 0,0 l/m 0 min 2 min 9 W/m 0,0 km/h (0 Bft) 93,62 %
05.05.2023 19:28 14,8 C 13,9 C 10,6 C 89 % 1016,9 hPa 0,0 l/m 0 min 2 min 9 W/m 0,0 km/h (0 Bft) 95,74 %
05.05.2023 19:30 14,8 C 13,9 C 10,6 C 89 % 1017,0 hPa 0,0 l/m 0 min 2 min 8 W/m 0,0 km/h (0 Bft) 91,49 %
05.05.2023 19:32 14,8 C 13,9 C 10,0 C 89 % 1017,0 hPa 0,0 l/m 0 min 2 min 9 W/m 0,0 km/h (0 Bft) 95,74 %
05.05.2023 19:34 14,9 C 13,9 C 10,0 C 89 % 1017,0 hPa 0,0 l/m 0 min 2 min 9 W/m 0,0 km/h (0 Bft) 93,48 %
05.05.2023 19:36 14,9 C 13,9 C 9,4 C 89 % 1016,9 hPa 0,2 l/m 0 min 2 min 11 W/m 3,2 km/h (1 Bft) 95,74 %
05.05.2023 19:38 14,9 C 13,9 C 9,4 C 89 % 1016,9 hPa 0,0 l/m 0 min 2 min 14 W/m 0,0 km/h (0 Bft) 97,87 %
05.05.2023 19:40 14,9 C 13,9 C 9,4 C 89 % 1016,9 hPa 0,0 l/m 0 min 2 min 19 W/m 0,0 km/h (0 Bft) 95,74 %
05.05.2023 19:42 14,9 C 13,9 C 9,4 C 90 % 1016,9 hPa 0,2 l/m 0 min 2 min 23 W/m 3,2 km/h (1 Bft) 95,74 %
05.05.2023 19:44 14,9 C 13,9 C 9,4 C 90 % 1016,9 hPa 0,2 l/m 0 min 2 min 28 W/m 0,0 km/h (0 Bft) 97,87 %
05.05.2023 19:46 14,9 C 13,9 C 9,4 C 90 % 1016,9 hPa 0,0 l/m 0 min 2 min 30 W/m 0,0 km/h (0 Bft) 97,87 %
05.05.2023 19:48 14,8 C 13,9 C 9,4 C 90 % 1016,8 hPa 0,2 l/m 0 min 2 min 25 W/m 0,0 km/h (0 Bft) 97,83 %
05.05.2023 19:50 14,9 C 13,9 C 9,4 C 90 % 1016,8 hPa 0,0 l/m 0 min 2 min 19 W/m 0,0 km/h (0 Bft) 97,87 %
05.05.2023 19:52 14,8 C 13,9 C 9,4 C 90 % 1016,8 hPa 0,2 l/m 0 min 2 min 16 W/m 3,2 km/h (1 Bft) 97,87 %
05.05.2023 19:54 14,8 C 13,9 C 9,4 C 91 % 1016,8 hPa 0,0 l/m 0 min 2 min 17 W/m 3,2 km/h (1 Bft) 100,00 %
05.05.2023 19:56 14,8 C 13,9 C 9,4 C 91 % 1016,6 hPa 0,0 l/m 0 min 2 min 15 W/m 3,2 km/h (1 Bft) 100,00 %
05.05.2023 19:58 14,7 C 13,9 C 9,4 C 91 % 1016,7 hPa 0,0 l/m 0 min 2 min 14 W/m 6,4 km/h (2 Bft) 100,00 %
05.05.2023 20:00 14,7 C 13,9 C 9,4 C 91 % 1016,7 hPa 0,0 l/m 0 min 0 min 14 W/m 3,2 km/h (1 Bft) 100,00 %
05.05.2023 20:02 14,7 C 13,3 C 9,4 C 91 % 1016,7 hPa 0,0 l/m 0 min 0 min 15 W/m 3,2 km/h (1 Bft) 100,00 %
05.05.2023 20:04 14,6 C 13,3 C 9,4 C 91 % 1016,7 hPa 0,0 l/m 0 min 0 min 17 W/m 3,2 km/h (1 Bft) 97,87 %
05.05.2023 20:06 14,6 C 13,3 C 9,4 C 91 % 1016,8 hPa 0,0 l/m 0 min 0 min 17 W/m 3,2 km/h (1 Bft) 100,00 %
05.05.2023 20:08 14,6 C 13,3 C 9,4 C 92 % 1016,7 hPa 0,0 l/m 0 min 0 min 14 W/m 3,2 km/h (1 Bft) 100,00 %
05.05.2023 20:10 14,6 C 13,3 C 9,4 C 92 % 1016,6 hPa 0,0 l/m 0 min 0 min 12 W/m 3,2 km/h (1 Bft) 100,00 %
05.05.2023 20:12 14,6 C 13,3 C 9,4 C 92 % 1016,7 hPa 0,0 l/m 0 min 0 min 11 W/m 3,2 km/h (1 Bft) 100,00 %
05.05.2023 20:14 14,5 C 13,3 C 9,4 C 92 % 1016,7 hPa 0,0 l/m 0 min 0 min 11 W/m 3,2 km/h (1 Bft) 100,00 %
05.05.2023 20:16 14,4 C 13,3 C 9,4 C 92 % 1016,7 hPa 0,0 l/m 0 min 0 min 9 W/m 3,2 km/h (1 Bft) 100,00 %
05.05.2023 20:18 14,4 C 13,3 C 8,9 C 92 % 1016,7 hPa 0,0 l/m 0 min 0 min 9 W/m 3,2 km/h (1 Bft) 97,22 %
05.05.2023 20:20 14,4 C 13,3 C 8,9 C 92 % 1016,7 hPa 0,0 l/m 0 min 0 min 9 W/m 3,2 km/h (1 Bft) 100,00 %
05.05.2023 20:22 14,3 C 13,3 C 8,9 C 92 % 1016,7 hPa 0,0 l/m 0 min 0 min 9 W/m 3,2 km/h (1 Bft) 100,00 %
05.05.2023 20:24 14,3 C 13,3 C 9,4 C 93 % 1016,8 hPa 0,0 l/m 0 min 0 min 9 W/m 0,0 km/h (0 Bft) 100,00 %
05.05.2023 20:26 14,3 C 13,3 C 9,4 C 93 % 1016,7 hPa 0,0 l/m 0 min 0 min 9 W/m 3,2 km/h (1 Bft) 100,00 %
05.05.2023 20:28 14,3 C 13,3 C 9,4 C 93 % 1016,8 hPa 0,0 l/m 0 min 0 min 7 W/m 3,2 km/h (1 Bft) 100,00 %
05.05.2023 20:30 14,3 C 13,3 C 9,4 C 93 % 1016,8 hPa 0,0 l/m 0 min 0 min 7 W/m 3,2 km/h (1 Bft) 97,87 %
05.05.2023 20:32 14,3 C 13,3 C 9,4 C 93 % 1016,7 hPa 0,0 l/m 0 min 0 min 7 W/m 3,2 km/h (1 Bft) 100,00 %
05.05.2023 20:34 14,3 C 13,3 C 9,4 C 93 % 1016,8 hPa 0,0 l/m 0 min 0 min 8 W/m 3,2 km/h (1 Bft) 100,00 %
05.05.2023 20:36 14,3 C 13,3 C 9,4 C 93 % 1016,7 hPa 0,0 l/m 0 min 0 min 9 W/m 3,2 km/h (1 Bft) 100,00 %
05.05.2023 20:38 14,3 C 13,3 C 9,4 C 93 % 1016,7 hPa 0,0 l/m 0 min 0 min 11 W/m 3,2 km/h (1 Bft) 97,87 %
05.05.2023 20:40 14,3 C 13,3 C 9,4 C 93 % 1016,7 hPa 0,0 l/m 0 min 0 min 12 W/m 3,2 km/h (1 Bft) 100,00 %
05.05.2023 20:42 14,3 C 13,3 C 9,4 C 93 % 1016,8 hPa 0,0 l/m 0 min 0 min 14 W/m 3,2 km/h (1 Bft) 97,87 %
05.05.2023 20:44 14,3 C 13,3 C 9,4 C 94 % 1016,8 hPa 0,0 l/m 0 min 0 min 16 W/m 3,2 km/h (1 Bft) 100,00 %
05.05.2023 20:46 14,3 C 13,3 C 9,4 C 94 % 1016,8 hPa 0,0 l/m 0 min 0 min 16 W/m 0,0 km/h (0 Bft) 97,87 %
05.05.2023 20:48 14,3 C 13,3 C 9,4 C 94 % 1016,8 hPa 0,0 l/m 0 min 0 min 16 W/m 3,2 km/h (1 Bft) 100,00 %
05.05.2023 20:50 14,3 C 13,3 C 9,4 C 94 % 1016,8 hPa 0,0 l/m 0 min 0 min 16 W/m 3,2 km/h (1 Bft) 100,00 %
05.05.2023 20:52 14,3 C 13,3 C 9,4 C 94 % 1016,9 hPa 0,0 l/m 0 min 0 min 14 W/m 3,2 km/h (1 Bft) 100,00 %
05.05.2023 20:54 14,2 C 12,8 C 9,4 C 94 % 1016,9 hPa 0,0 l/m 0 min 0 min 11 W/m 0,0 km/h (0 Bft) 97,87 %
05.05.2023 20:56 14,2 C 12,8 C 9,4 C 94 % 1016,9 hPa 0,0 l/m 0 min 0 min 9 W/m 0,0 km/h (0 Bft) 97,87 %
05.05.2023 20:58 14,1 C 12,8 C 8,9 C 94 % 1016,9 hPa 0,0 l/m 0 min 0 min 6 W/m 0,0 km/h (0 Bft) 100,00 %
05.05.2023 21:00 14,1 C 12,8 C 8,9 C 94 % 1016,9 hPa 0,0 l/m 0 min 0 min 4 W/m 3,2 km/h (1 Bft) 100,00 %
05.05.2023 21:02 14,1 C 12,8 C 8,9 C 94 % 1016,9 hPa 0,0 l/m 0 min 0 min 0 W/m 3,2 km/h (1 Bft) 100,00 %
05.05.2023 21:04 14,1 C 12,8 C 8,9 C 94 % 1016,9 hPa 0,0 l/m 0 min 0 min 0 W/m 0,0 km/h (0 Bft) 93,62 %
05.05.2023 21:06 14,0 C 12,8 C 8,9 C 94 % 1016,9 hPa 0,0 l/m 0 min 0 min 0 W/m 3,2 km/h (1 Bft) 98,31 %
05.05.2023 21:08 14,0 C 12,8 C 8,9 C 94 % 1016,9 hPa 0,0 l/m 0 min 0 min 0 W/m 0,0 km/h (0 Bft) 97,14 %
05.05.2023 21:10 13,9 C 12,8 C 8,9 C 94 % 1016,9 hPa 0,0 l/m 0 min 0 min 0 W/m 6,4 km/h (2 Bft) 97,87 %
05.05.2023 21:12 13,9 C 12,8 C 8,9 C 94 % 1017,0 hPa 0,0 l/m 0 min 0 min 0 W/m 0,0 km/h (0 Bft) 95,74 %
05.05.2023 21:14 13,9 C 12,2 C 8,9 C 94 % 1017,0 hPa 0,0 l/m 0 min 0 min 0 W/m 3,2 km/h (1 Bft) 95,74 %
05.05.2023 21:16 13,8 C 12,2 C 8,9 C 94 % 1017,0 hPa 0,0 l/m 0 min 0 min 0 W/m 3,2 km/h (1 Bft) 95,65 %
05.05.2023 21:18 13,8 C 12,2 C 8,9 C 94 % 1017,0 hPa 0,0 l/m 0 min 0 min 0 W/m 3,2 km/h (1 Bft) 95,74 %
05.05.2023 21:20 13,8 C 12,2 C 8,9 C 94 % 1017,1 hPa 0,2 l/m 0 min 0 min 0 W/m 3,2 km/h (1 Bft) 95,74 %
05.05.2023 21:22 13,8 C 12,2 C 8,9 C 94 % 1017,1 hPa 0,0 l/m 0 min 0 min 0 W/m 3,2 km/h (1 Bft) 93,62 %
05.05.2023 21:24 13,7 C 12,2 C 8,9 C 94 % 1017,1 hPa 0,0 l/m 0 min 0 min 0 W/m 3,2 km/h (1 Bft) 95,74 %
05.05.2023 21:26 13,7 C 12,2 C 8,9 C 94 % 1017,2 hPa 0,0 l/m 0 min 0 min 0 W/m 3,2 km/h (1 Bft) 95,74 %
05.05.2023 21:28 13,7 C 12,2 C 8,9 C 94 % 1017,2 hPa 0,0 l/m 0 min 0 min 0 W/m 0,0 km/h (0 Bft) 97,87 %
05.05.2023 21:30 13,7 C 12,2 C 8,9 C 94 % 1017,2 hPa 0,0 l/m 0 min 0 min 0 W/m 0,0 km/h (0 Bft) 95,65 %
05.05.2023 21:32 13,7 C 12,2 C 8,9 C 94 % 1017,2 hPa 0,0 l/m 0 min 0 min 0 W/m 3,2 km/h (1 Bft) 95,74 %
05.05.2023 21:34 13,6 C 12,2 C 8,9 C 94 % 1017,3 hPa 0,0 l/m 0 min 0 min 0 W/m 0,0 km/h (0 Bft) 95,74 %
05.05.2023 21:36 13,6 C 12,2 C 8,9 C 94 % 1017,3 hPa 0,0 l/m 0 min 0 min 0 W/m 0,0 km/h (0 Bft) 95,74 %
05.05.2023 21:38 13,6 C 12,2 C 8,9 C 94 % 1017,3 hPa 0,0 l/m 0 min 0 min 0 W/m 0,0 km/h (0 Bft) 93,62 %
05.05.2023 21:40 13,6 C 12,2 C 8,9 C 94 % 1017,2 hPa 0,0 l/m 0 min 0 min 0 W/m 3,2 km/h (1 Bft) 97,87 %
05.05.2023 21:42 13,6 C 12,2 C 8,9 C 94 % 1017,2 hPa 0,0 l/m 0 min 0 min 0 W/m 0,0 km/h (0 Bft) 97,87 %
05.05.2023 21:44 13,5 C 12,2 C 8,9 C 94 % 1017,3 hPa 0,0 l/m 0 min 0 min 0 W/m 0,0 km/h (0 Bft) 97,87 %
05.05.2023 21:46 13,5 C 12,2 C 8,9 C 94 % 1017,3 hPa 0,0 l/m 0 min 0 min 0 W/m 3,2 km/h (1 Bft) 97,83 %
05.05.2023 21:48 13,5 C 12,2 C 8,3 C 94 % 1017,3 hPa 0,0 l/m 0 min 0 min 0 W/m 3,2 km/h (1 Bft) 93,62 %
05.05.2023 21:50 13,4 C 12,2 C 8,9 C 94 % 1017,3 hPa 0,0 l/m 0 min 0 min 0 W/m 3,2 km/h (1 Bft) 97,87 %
05.05.2023 21:52 13,4 C 12,2 C 8,9 C 94 % 1017,2 hPa 0,0 l/m 0 min 0 min 0 W/m 0,0 km/h (0 Bft) 97,87 %
05.05.2023 21:54 13,4 C 12,2 C 8,3 C 94 % 1017,2 hPa 0,0 l/m 0 min 0 min 0 W/m 0,0 km/h (0 Bft) 97,87 %
05.05.2023 21:56 13,4 C 12,2 C 8,3 C 94 % 1017,3 hPa 0,0 l/m 0 min 0 min 0 W/m 0,0 km/h (0 Bft) 97,87 %
05.05.2023 21:58 13,4 C 12,2 C 8,3 C 94 % 1017,3 hPa 0,0 l/m 0 min 0 min 0 W/m 0,0 km/h (0 Bft) 97,83 %
05.05.2023 22:00 13,4 C 11,7 C 8,3 C 94 % 1017,3 hPa 0,0 l/m 0 min 0 min 0 W/m 0,0 km/h (0 Bft) 95,74 %
05.05.2023 22:02 13,3 C 11,7 C 8,3 C 94 % 1017,3 hPa 0,0 l/m 0 min 0 min 0 W/m 0,0 km/h (0 Bft) 97,87 %
05.05.2023 22:04 13,3 C 11,7 C 8,3 C 94 % 1017,3 hPa 0,0 l/m 0 min 0 min 0 W/m 0,0 km/h (0 Bft) 93,62 %
05.05.2023 22:06 13,3 C 11,7 C 8,3 C 94 % 1017,3 hPa 0,0 l/m 0 min 0 min 0 W/m 0,0 km/h (0 Bft) 96,61 %
05.05.2023 22:08 13,3 C 11,7 C 8,3 C 94 % 1017,2 hPa 0,0 l/m 0 min 0 min 0 W/m 0,0 km/h (0 Bft) 94,29 %
05.05.2023 22:10 13,2 C 11,7 C 8,3 C 94 % 1017,2 hPa 0,0 l/m 0 min 0 min 0 W/m 0,0 km/h (0 Bft) 97,87 %
05.05.2023 22:12 13,2 C 11,7 C 8,3 C 94 % 1017,2 hPa 0,0 l/m 0 min 0 min 0 W/m 0,0 km/h (0 Bft) 97,83 %
05.05.2023 22:14 13,2 C 11,7 C 8,3 C 94 % 1017,2 hPa 0,0 l/m 0 min 0 min 0 W/m 0,0 km/h (0 Bft) 97,87 %
05.05.2023 22:16 13,1 C 11,7 C 8,3 C 94 % 1017,2 hPa 0,0 l/m 0 min 0 min 0 W/m 0,0 km/h (0 Bft) 95,83 %
05.05.2023 22:18 13,1 C 11,7 C 8,3 C 94 % 1017,2 hPa 0,0 l/m 0 min 0 min 0 W/m 0,0 km/h (0 Bft) 97,87 %
05.05.2023 22:20 13,1 C 11,7 C 8,3 C 94 % 1017,2 hPa 0,0 l/m 0 min 0 min 0 W/m 0,0 km/h (0 Bft) 97,87 %
05.05.2023 22:22 13,1 C 11,7 C 8,3 C 94 % 1017,2 hPa 0,0 l/m 0 min 0 min 0 W/m 0,0 km/h (0 Bft) 95,83 %
05.05.2023 22:24 13,0 C 11,1 C 7,8 C 94 % 1017,2 hPa 0,0 l/m 0 min 0 min 0 W/m 0,0 km/h (0 Bft) 97,87 %
05.05.2023 22:26 13,0 C 11,1 C 7,8 C 94 % 1017,3 hPa 0,0 l/m 0 min 0 min 0 W/m 0,0 km/h (0 Bft) 97,83 %
05.05.2023 22:28 12,9 C 11,1 C 7,8 C 94 % 1017,2 hPa 0,0 l/m 0 min 0 min 0 W/m 0,0 km/h (0 Bft) 97,87 %
05.05.2023 22:30 12,9 C 11,1 C 7,8 C 94 % 1017,2 hPa 0,0 l/m 0 min 0 min 0 W/m 0,0 km/h (0 Bft) 97,87 %
05.05.2023 22:32 12,9 C 11,1 C 7,8 C 94 % 1017,2 hPa 0,0 l/m 0 min 0 min 0 W/m 0,0 km/h (0 Bft) 97,96 %
05.05.2023 22:34 12,9 C 11,1 C 7,8 C 94 % 1017,2 hPa 0,0 l/m 0 min 0 min 0 W/m 0,0 km/h (0 Bft) 97,87 %
05.05.2023 22:36 12,8 C 11,1 C 7,8 C 94 % 1017,2 hPa 0,0 l/m 0 min 0 min 0 W/m 0,0 km/h (0 Bft) 97,92 %
05.05.2023 22:38 12,8 C 11,1 C 7,8 C 94 % 1017,2 hPa 0,0 l/m 0 min 0 min 0 W/m 0,0 km/h (0 Bft) 95,74 %
05.05.2023 22:40 12,8 C 11,1 C 7,8 C 94 % 1017,2 hPa 0,0 l/m 0 min 0 min 0 W/m 0,0 km/h (0 Bft) 95,65 %
05.05.2023 22:42 12,8 C 11,1 C 7,8 C 94 % 1017,2 hPa 0,0 l/m 0 min 0 min 0 W/m 0,0 km/h (0 Bft) 97,87 %
05.05.2023 22:44 12,7 C 11,1 C 7,8 C 94 % 1017,2 hPa 0,0 l/m 0 min 0 min 0 W/m 0,0 km/h (0 Bft) 97,87 %
05.05.2023 22:46 12,7 C 11,1 C 7,8 C 94 % 1017,2 hPa 0,0 l/m 0 min 0 min 0 W/m 0,0 km/h (0 Bft) 95,74 %
05.05.2023 22:48 12,7 C 11,1 C 7,8 C 94 % 1017,2 hPa 0,0 l/m 0 min 0 min 0 W/m 0,0 km/h (0 Bft) 97,87 %
05.05.2023 22:50 12,7 C 11,1 C 7,8 C 94 % 1017,2 hPa 0,0 l/m 0 min 0 min 0 W/m 0,0 km/h (0 Bft) 95,74 %
05.05.2023 22:52 12,6 C 11,1 C 7,8 C 95 % 1017,2 hPa 0,0 l/m 0 min 0 min 0 W/m 0,0 km/h (0 Bft) 93,62 %
05.05.2023 22:54 12,6 C 11,1 C 7,8 C 94 % 1017,2 hPa 0,0 l/m 0 min 0 min 0 W/m 0,0 km/h (0 Bft) 95,74 %
05.05.2023 22:56 12,6 C 11,1 C 7,8 C 94 % 1017,3 hPa 0,0 l/m 0 min 0 min 0 W/m 0,0 km/h (0 Bft) 91,30 %
05.05.2023 22:58 12,6 C 11,1 C 7,8 C 95 % 1017,3 hPa 0,0 l/m 0 min 0 min 0 W/m 0,0 km/h (0 Bft) 97,87 %
05.05.2023 23:00 12,6 C 11,1 C 7,8 C 95 % 1017,2 hPa 0,0 l/m 0 min 0 min 0 W/m 0,0 km/h (0 Bft) 97,87 %
05.05.2023 23:02 12,6 C 11,1 C 7,8 C 95 % 1017,2 hPa 0,0 l/m 0 min 0 min 0 W/m 0,0 km/h (0 Bft) 97,87 %
05.05.2023 23:04 12,6 C 11,1 C 7,8 C 95 % 1017,2 hPa 0,0 l/m 0 min 0 min 0 W/m 0,0 km/h (0 Bft) 97,92 %
05.05.2023 23:06 12,6 C 11,1 C 7,8 C 95 % 1017,2 hPa 0,0 l/m 0 min 0 min 0 W/m 0,0 km/h (0 Bft) 95,74 %
05.05.2023 23:08 12,6 C 11,1 C 7,8 C 95 % 1017,2 hPa 0,0 l/m 0 min 0 min 0 W/m 0,0 km/h (0 Bft) 94,29 %
05.05.2023 23:10 12,6 C 11,1 C 7,8 C 95 % 1017,2 hPa 0,0 l/m 0 min 0 min 0 W/m 6,4 km/h (2 Bft) 97,87 %
05.05.2023 23:12 12,6 C 11,1 C 7,8 C 95 % 1017,3 hPa 0,0 l/m 0 min 0 min 0 W/m 3,2 km/h (1 Bft) 95,74 %
05.05.2023 23:14 12,6 C 11,1 C 7,8 C 95 % 1017,3 hPa 0,0 l/m 0 min 0 min 0 W/m 3,2 km/h (1 Bft) 97,83 %
05.05.2023 23:16 12,6 C 11,7 C 7,8 C 95 % 1017,2 hPa 0,0 l/m 0 min 0 min 0 W/m 0,0 km/h (0 Bft) 96,30 %
05.05.2023 23:18 12,6 C 11,7 C 7,8 C 95 % 1017,2 hPa 0,0 l/m 0 min 0 min 0 W/m 0,0 km/h (0 Bft) 100,00 %
05.05.2023 23:20 12,6 C 11,7 C 7,8 C 95 % 1017,2 hPa 0,0 l/m 0 min 0 min 0 W/m 3,2 km/h (1 Bft) 97,92 %
05.05.2023 23:22 12,6 C 11,7 C 7,8 C 95 % 1017,3 hPa 0,0 l/m 0 min 0 min 0 W/m 0,0 km/h (0 Bft) 97,96 %
05.05.2023 23:24 12,6 C 11,7 C 7,8 C 95 % 1017,3 hPa 0,0 l/m 0 min 0 min 0 W/m 0,0 km/h (0 Bft) 97,87 %
05.05.2023 23:26 12,6 C 11,7 C 7,8 C 95 % 1017,3 hPa 0,0 l/m 0 min 0 min 0 W/m 0,0 km/h (0 Bft) 100,00 %
05.05.2023 23:28 12,6 C 11,7 C 7,8 C 96 % 1017,3 hPa 0,0 l/m 0 min 0 min 0 W/m 0,0 km/h (0 Bft) 100,00 %
05.05.2023 23:30 12,6 C 11,1 C 7,8 C 96 % 1017,2 hPa 0,0 l/m 0 min 0 min 0 W/m 0,0 km/h (0 Bft) 97,87 %
05.05.2023 23:32 12,6 C 11,1 C 7,8 C 96 % 1017,2 hPa 0,0 l/m 0 min 0 min 0 W/m 0,0 km/h (0 Bft) 95,74 %
05.05.2023 23:34 12,6 C 11,1 C 7,8 C 96 % 1017,2 hPa 0,0 l/m 0 min 0 min 0 W/m 0,0 km/h (0 Bft) 97,87 %
05.05.2023 23:36 12,5 C 11,1 C 7,8 C 96 % 1017,2 hPa 0,0 l/m 0 min 0 min 0 W/m 0,0 km/h (0 Bft) 97,83 %
05.05.2023 23:38 12,5 C 11,1 C 7,8 C 96 % 1017,3 hPa 0,0 l/m 0 min 0 min 0 W/m 3,2 km/h (1 Bft) 97,87 %
05.05.2023 23:40 12,5 C 11,1 C 7,8 C 96 % 1017,2 hPa 0,0 l/m 0 min 0 min 0 W/m 3,2 km/h (1 Bft) 97,87 %
05.05.2023 23:42 12,4 C 11,1 C 7,8 C 96 % 1017,2 hPa 0,0 l/m 0 min 0 min 0 W/m 0,0 km/h (0 Bft) 97,87 %
05.05.2023 23:44 12,4 C 11,1 C 7,8 C 96 % 1017,2 hPa 0,0 l/m 0 min 0 min 0 W/m 3,2 km/h (1 Bft) 97,87 %
05.05.2023 23:46 12,4 C 11,1 C 7,8 C 96 % 1017,2 hPa 0,0 l/m 0 min 0 min 0 W/m 0,0 km/h (0 Bft) 95,74 %
05.05.2023 23:48 12,4 C 11,1 C 7,8 C 96 % 1017,2 hPa 0,0 l/m 0 min 0 min 0 W/m 0,0 km/h (0 Bft) 97,87 %
05.05.2023 23:50 12,4 C 11,1 C 7,8 C 96 % 1017,3 hPa 0,0 l/m 0 min 0 min 0 W/m 0,0 km/h (0 Bft) 97,83 %
05.05.2023 23:52 12,4 C 11,1 C 7,8 C 96 % 1017,3 hPa 0,0 l/m 0 min 0 min 0 W/m 0,0 km/h (0 Bft) 97,87 %
05.05.2023 23:54 12,4 C 11,1 C 7,8 C 96 % 1017,3 hPa 0,0 l/m 0 min 0 min 0 W/m 0,0 km/h (0 Bft) 97,87 %
05.05.2023 23:56 12,4 C 11,1 C 7,8 C 96 % 1017,3 hPa 0,0 l/m 0 min 0 min 0 W/m 0,0 km/h (0 Bft) 97,87 %
05.05.2023 23:58 12,4 C 11,1 C 7,8 C 96 % 1017,3 hPa 0,0 l/m 0 min 0 min 0 W/m 0,0 km/h (0 Bft) 97,87 %
_ Min-Zeit 23:42 22:24 22:24 00:00 00:20 - - - - 02:14 00:05
Minimum _ 12,4 C 11,1 C 7,8 C 60 % 1014,5 hPa - - - - 0,0 km/h (0 Bft) 53,51 %
_ Max-Zeit 15:32 11:28 11:46 23:28 21:34 13:50 08:12 12:18 15:30 16:24 00:10
Maximum _ 21,1 C 25,0 C 17,8 C 96 % 1017,3 hPa 0,2 l/m 2 min 2 min 831 W/m 25,7 km/h
O-NO (4 Bft)
100,00 %
Durchschnitt _ 16,6 C 16,4 C 12,1 C 79 % 1016,2 hPa #1,4 l/m #4:50 h #1:06 h 227 W/m 6,0 km/h (2 Bft) 97,43 %
© 2023 W. Hausmann